<?xml version="1.0" encoding="utf-8"?>
<gpx xmlns:xsi="http://www.w3.org/2001/XMLSchema-instance" xmlns:xsd="http://www.w3.org/2001/XMLSchema" version="1.1" creator="Shapelink.com" xmlns="http://www.topografix.com/GPX/1/1" xmlns:gpxtpx="http://www.garmin.com/xmlschemas/TrackPointExtension/v1">
  <metadata>
    <name>Gåing 5.95 km, 2012-03-24</name>
    <desc></desc>
    <author><name>Mikael Blom</name></author> 
    <time>2012-03-24T14:12:38Z</time>
  </metadata>
  <trk>
    <name>Gåing 5.95 km, 2012-03-24</name>
    <trkseg>
      <trkpt lat="59.9611257" lon="17.7181796">
        <ele>42.4354</ele>
        <time>2012-03-24T14:12:38Z</time>
      </trkpt>
      <trkpt lat="59.9611082" lon="17.7182211">
        <ele>43.3966</ele>
        <time>2012-03-24T14:12:40Z</time>
      </trkpt>
      <trkpt lat="59.9610507" lon="17.7182525">
        <ele>42.916</ele>
        <time>2012-03-24T14:12:44Z</time>
      </trkpt>
      <trkpt lat="59.9609751" lon="17.7182556">
        <ele>43.8773</ele>
        <time>2012-03-24T14:12:51Z</time>
      </trkpt>
      <trkpt lat="59.9609504" lon="17.7182676">
        <ele>43.3966</ele>
        <time>2012-03-24T14:12:53Z</time>
      </trkpt>
      <trkpt lat="59.9609103" lon="17.7183583">
        <ele>43.8773</ele>
        <time>2012-03-24T14:12:57Z</time>
      </trkpt>
      <trkpt lat="59.9608848" lon="17.7184133">
        <ele>44.8386</ele>
        <time>2012-03-24T14:13:00Z</time>
      </trkpt>
      <trkpt lat="59.9608639" lon="17.718498">
        <ele>46.2806</ele>
        <time>2012-03-24T14:13:04Z</time>
      </trkpt>
      <trkpt lat="59.960827" lon="17.7187027">
        <ele>47.7225</ele>
        <time>2012-03-24T14:13:09Z</time>
      </trkpt>
      <trkpt lat="59.9608089" lon="17.7187519">
        <ele>47.2418</ele>
        <time>2012-03-24T14:13:11Z</time>
      </trkpt>
      <trkpt lat="59.9607959" lon="17.7188305">
        <ele>46.2806</ele>
        <time>2012-03-24T14:13:14Z</time>
      </trkpt>
      <trkpt lat="59.960755" lon="17.7189902">
        <ele>45.3192</ele>
        <time>2012-03-24T14:13:21Z</time>
      </trkpt>
      <trkpt lat="59.9607311" lon="17.7191503">
        <ele>45.7999</ele>
        <time>2012-03-24T14:13:27Z</time>
      </trkpt>
      <trkpt lat="59.9606864" lon="17.719329">
        <ele>48.684</ele>
        <time>2012-03-24T14:13:33Z</time>
      </trkpt>
      <trkpt lat="59.9606388" lon="17.7195871">
        <ele>49.6453</ele>
        <time>2012-03-24T14:13:41Z</time>
      </trkpt>
      <trkpt lat="59.9606009" lon="17.7197962">
        <ele>50.6066</ele>
        <time>2012-03-24T14:13:48Z</time>
      </trkpt>
      <trkpt lat="59.9605719" lon="17.7199714">
        <ele>52.0486</ele>
        <time>2012-03-24T14:13:53Z</time>
      </trkpt>
      <trkpt lat="59.9605475" lon="17.7201025">
        <ele>52.0486</ele>
        <time>2012-03-24T14:13:58Z</time>
      </trkpt>
      <trkpt lat="59.960542" lon="17.7201715">
        <ele>51.5679</ele>
        <time>2012-03-24T14:14:01Z</time>
      </trkpt>
      <trkpt lat="59.9605301" lon="17.7202694">
        <ele>51.5679</ele>
        <time>2012-03-24T14:14:05Z</time>
      </trkpt>
      <trkpt lat="59.9604947" lon="17.7204105">
        <ele>51.5679</ele>
        <time>2012-03-24T14:14:10Z</time>
      </trkpt>
      <trkpt lat="59.9604696" lon="17.7205542">
        <ele>52.5292</ele>
        <time>2012-03-24T14:14:16Z</time>
      </trkpt>
      <trkpt lat="59.9604577" lon="17.7205764">
        <ele>52.5292</ele>
        <time>2012-03-24T14:14:17Z</time>
      </trkpt>
      <trkpt lat="59.9604323" lon="17.7206868">
        <ele>52.5292</ele>
        <time>2012-03-24T14:14:21Z</time>
      </trkpt>
      <trkpt lat="59.9603955" lon="17.7208454">
        <ele>51.5679</ele>
        <time>2012-03-24T14:14:27Z</time>
      </trkpt>
      <trkpt lat="59.9603623" lon="17.7210489">
        <ele>51.5679</ele>
        <time>2012-03-24T14:14:34Z</time>
      </trkpt>
      <trkpt lat="59.9603338" lon="17.7212448">
        <ele>50.126</ele>
        <time>2012-03-24T14:14:40Z</time>
      </trkpt>
      <trkpt lat="59.9602945" lon="17.7214621">
        <ele>49.6453</ele>
        <time>2012-03-24T14:14:47Z</time>
      </trkpt>
      <trkpt lat="59.9602666" lon="17.7215861">
        <ele>49.6453</ele>
        <time>2012-03-24T14:14:51Z</time>
      </trkpt>
      <trkpt lat="59.9602326" lon="17.7217739">
        <ele>49.1646</ele>
        <time>2012-03-24T14:14:58Z</time>
      </trkpt>
      <trkpt lat="59.9602077" lon="17.721911">
        <ele>50.126</ele>
        <time>2012-03-24T14:15:03Z</time>
      </trkpt>
      <trkpt lat="59.9601877" lon="17.7220284">
        <ele>51.5679</ele>
        <time>2012-03-24T14:15:08Z</time>
      </trkpt>
      <trkpt lat="59.96018" lon="17.7220621">
        <ele>52.5292</ele>
        <time>2012-03-24T14:15:10Z</time>
      </trkpt>
      <trkpt lat="59.9601468" lon="17.722175">
        <ele>50.126</ele>
        <time>2012-03-24T14:15:15Z</time>
      </trkpt>
      <trkpt lat="59.9601034" lon="17.7222543">
        <ele>49.6453</ele>
        <time>2012-03-24T14:15:19Z</time>
      </trkpt>
      <trkpt lat="59.960027" lon="17.7222839">
        <ele>48.2034</ele>
        <time>2012-03-24T14:15:24Z</time>
      </trkpt>
      <trkpt lat="59.959954" lon="17.7222867">
        <ele>48.2034</ele>
        <time>2012-03-24T14:15:28Z</time>
      </trkpt>
      <trkpt lat="59.9598936" lon="17.7222766">
        <ele>47.7225</ele>
        <time>2012-03-24T14:15:32Z</time>
      </trkpt>
      <trkpt lat="59.95988" lon="17.7222701">
        <ele>47.7225</ele>
        <time>2012-03-24T14:15:33Z</time>
      </trkpt>
      <trkpt lat="59.9598059" lon="17.7222363">
        <ele>46.2806</ele>
        <time>2012-03-24T14:15:38Z</time>
      </trkpt>
      <trkpt lat="59.9597341" lon="17.7222206">
        <ele>45.7999</ele>
        <time>2012-03-24T14:15:42Z</time>
      </trkpt>
      <trkpt lat="59.9596733" lon="17.722176">
        <ele>46.7612</ele>
        <time>2012-03-24T14:15:47Z</time>
      </trkpt>
      <trkpt lat="59.9595564" lon="17.722094">
        <ele>46.2806</ele>
        <time>2012-03-24T14:15:55Z</time>
      </trkpt>
      <trkpt lat="59.9595314" lon="17.7220712">
        <ele>46.2806</ele>
        <time>2012-03-24T14:15:57Z</time>
      </trkpt>
      <trkpt lat="59.9594696" lon="17.722013">
        <ele>46.2806</ele>
        <time>2012-03-24T14:16:02Z</time>
      </trkpt>
      <trkpt lat="59.9593703" lon="17.7219383">
        <ele>46.7612</ele>
        <time>2012-03-24T14:16:09Z</time>
      </trkpt>
      <trkpt lat="59.9593314" lon="17.721902">
        <ele>46.7612</ele>
        <time>2012-03-24T14:16:12Z</time>
      </trkpt>
      <trkpt lat="59.9592661" lon="17.7218357">
        <ele>46.2806</ele>
        <time>2012-03-24T14:16:17Z</time>
      </trkpt>
      <trkpt lat="59.9592266" lon="17.7219155">
        <ele>47.2418</ele>
        <time>2012-03-24T14:16:22Z</time>
      </trkpt>
      <trkpt lat="59.9592009" lon="17.7220104">
        <ele>48.684</ele>
        <time>2012-03-24T14:16:25Z</time>
      </trkpt>
      <trkpt lat="59.9591508" lon="17.7221081">
        <ele>50.126</ele>
        <time>2012-03-24T14:16:30Z</time>
      </trkpt>
      <trkpt lat="59.9590837" lon="17.7221743">
        <ele>49.1646</ele>
        <time>2012-03-24T14:16:35Z</time>
      </trkpt>
      <trkpt lat="59.9590049" lon="17.7221564">
        <ele>47.2418</ele>
        <time>2012-03-24T14:16:41Z</time>
      </trkpt>
      <trkpt lat="59.958963" lon="17.7220731">
        <ele>45.7999</ele>
        <time>2012-03-24T14:16:44Z</time>
      </trkpt>
      <trkpt lat="59.958955" lon="17.72205">
        <ele>45.3192</ele>
        <time>2012-03-24T14:16:45Z</time>
      </trkpt>
      <trkpt lat="59.9588984" lon="17.7219728">
        <ele>42.4354</ele>
        <time>2012-03-24T14:16:51Z</time>
      </trkpt>
      <trkpt lat="59.9588465" lon="17.7219055">
        <ele>39.0707</ele>
        <time>2012-03-24T14:16:56Z</time>
      </trkpt>
      <trkpt lat="59.9587903" lon="17.7217644">
        <ele>40.0321</ele>
        <time>2012-03-24T14:17:02Z</time>
      </trkpt>
      <trkpt lat="59.9587736" lon="17.7217333">
        <ele>39.0707</ele>
        <time>2012-03-24T14:17:04Z</time>
      </trkpt>
      <trkpt lat="59.9587164" lon="17.7215985">
        <ele>36.1868</ele>
        <time>2012-03-24T14:17:11Z</time>
      </trkpt>
      <trkpt lat="59.9586545" lon="17.7215011">
        <ele>32.8223</ele>
        <time>2012-03-24T14:17:17Z</time>
      </trkpt>
      <trkpt lat="59.9585972" lon="17.7213934">
        <ele>33.7834</ele>
        <time>2012-03-24T14:17:22Z</time>
      </trkpt>
      <trkpt lat="59.9584646" lon="17.7211961">
        <ele>36.1868</ele>
        <time>2012-03-24T14:17:31Z</time>
      </trkpt>
      <trkpt lat="59.9583783" lon="17.7210654">
        <ele>39.5513</ele>
        <time>2012-03-24T14:17:36Z</time>
      </trkpt>
      <trkpt lat="59.9582607" lon="17.7208861">
        <ele>40.9934</ele>
        <time>2012-03-24T14:17:44Z</time>
      </trkpt>
      <trkpt lat="59.9582303" lon="17.7208267">
        <ele>41.9547</ele>
        <time>2012-03-24T14:17:46Z</time>
      </trkpt>
      <trkpt lat="59.9581716" lon="17.7206964">
        <ele>41.474</ele>
        <time>2012-03-24T14:17:51Z</time>
      </trkpt>
      <trkpt lat="59.9581079" lon="17.7205609">
        <ele>41.474</ele>
        <time>2012-03-24T14:17:57Z</time>
      </trkpt>
      <trkpt lat="59.9580573" lon="17.7204423">
        <ele>40.5128</ele>
        <time>2012-03-24T14:18:02Z</time>
      </trkpt>
      <trkpt lat="59.9580116" lon="17.7203497">
        <ele>38.5901</ele>
        <time>2012-03-24T14:18:07Z</time>
      </trkpt>
      <trkpt lat="59.9579319" lon="17.7202205">
        <ele>38.1094</ele>
        <time>2012-03-24T14:18:13Z</time>
      </trkpt>
      <trkpt lat="59.9578772" lon="17.720102">
        <ele>37.1481</ele>
        <time>2012-03-24T14:18:18Z</time>
      </trkpt>
      <trkpt lat="59.957851" lon="17.7200525">
        <ele>36.6675</ele>
        <time>2012-03-24T14:18:20Z</time>
      </trkpt>
      <trkpt lat="59.9578029" lon="17.7199568">
        <ele>35.7061</ele>
        <time>2012-03-24T14:18:25Z</time>
      </trkpt>
      <trkpt lat="59.9577493" lon="17.7198507">
        <ele>35.7061</ele>
        <time>2012-03-24T14:18:30Z</time>
      </trkpt>
      <trkpt lat="59.9576866" lon="17.7197425">
        <ele>36.6675</ele>
        <time>2012-03-24T14:18:35Z</time>
      </trkpt>
      <trkpt lat="59.9576573" lon="17.7197031">
        <ele>36.6675</ele>
        <time>2012-03-24T14:18:37Z</time>
      </trkpt>
      <trkpt lat="59.9576267" lon="17.7195993">
        <ele>37.1481</ele>
        <time>2012-03-24T14:18:41Z</time>
      </trkpt>
      <trkpt lat="59.957617" lon="17.7195499">
        <ele>37.1481</ele>
        <time>2012-03-24T14:18:43Z</time>
      </trkpt>
      <trkpt lat="59.9575877" lon="17.7194684">
        <ele>37.6287</ele>
        <time>2012-03-24T14:18:47Z</time>
      </trkpt>
      <trkpt lat="59.9575464" lon="17.719311">
        <ele>38.1094</ele>
        <time>2012-03-24T14:18:52Z</time>
      </trkpt>
      <trkpt lat="59.9574941" lon="17.719197">
        <ele>38.1094</ele>
        <time>2012-03-24T14:18:57Z</time>
      </trkpt>
      <trkpt lat="59.9574454" lon="17.7190818">
        <ele>38.1094</ele>
        <time>2012-03-24T14:19:02Z</time>
      </trkpt>
      <trkpt lat="59.9574222" lon="17.7190385">
        <ele>38.1094</ele>
        <time>2012-03-24T14:19:04Z</time>
      </trkpt>
      <trkpt lat="59.9573346" lon="17.7188307">
        <ele>37.1481</ele>
        <time>2012-03-24T14:19:13Z</time>
      </trkpt>
      <trkpt lat="59.9573074" lon="17.7187562">
        <ele>37.6287</ele>
        <time>2012-03-24T14:19:17Z</time>
      </trkpt>
      <trkpt lat="59.9572675" lon="17.7186715">
        <ele>37.6287</ele>
        <time>2012-03-24T14:19:21Z</time>
      </trkpt>
      <trkpt lat="59.957222" lon="17.7185767">
        <ele>37.6287</ele>
        <time>2012-03-24T14:19:26Z</time>
      </trkpt>
      <trkpt lat="59.9571644" lon="17.7184727">
        <ele>37.1481</ele>
        <time>2012-03-24T14:19:31Z</time>
      </trkpt>
      <trkpt lat="59.9571117" lon="17.7183676">
        <ele>37.1481</ele>
        <time>2012-03-24T14:19:36Z</time>
      </trkpt>
      <trkpt lat="59.9571013" lon="17.7183454">
        <ele>37.6287</ele>
        <time>2012-03-24T14:19:37Z</time>
      </trkpt>
      <trkpt lat="59.9570434" lon="17.718207">
        <ele>37.1481</ele>
        <time>2012-03-24T14:19:43Z</time>
      </trkpt>
      <trkpt lat="59.9570202" lon="17.7181594">
        <ele>36.6675</ele>
        <time>2012-03-24T14:19:45Z</time>
      </trkpt>
      <trkpt lat="59.9569801" lon="17.718001">
        <ele>37.1481</ele>
        <time>2012-03-24T14:19:51Z</time>
      </trkpt>
      <trkpt lat="59.9569319" lon="17.7178394">
        <ele>37.6287</ele>
        <time>2012-03-24T14:19:57Z</time>
      </trkpt>
      <trkpt lat="59.9568798" lon="17.7177459">
        <ele>33.3029</ele>
        <time>2012-03-24T14:20:02Z</time>
      </trkpt>
      <trkpt lat="59.9568534" lon="17.7176942">
        <ele>30.8995</ele>
        <time>2012-03-24T14:20:05Z</time>
      </trkpt>
      <trkpt lat="59.9568397" lon="17.7176626">
        <ele>28.9769</ele>
        <time>2012-03-24T14:20:07Z</time>
      </trkpt>
      <trkpt lat="59.9568021" lon="17.7175234">
        <ele>27.5349</ele>
        <time>2012-03-24T14:20:12Z</time>
      </trkpt>
      <trkpt lat="59.9567767" lon="17.7174558">
        <ele>28.0155</ele>
        <time>2012-03-24T14:20:15Z</time>
      </trkpt>
      <trkpt lat="59.9567208" lon="17.7173216">
        <ele>27.0543</ele>
        <time>2012-03-24T14:20:21Z</time>
      </trkpt>
      <trkpt lat="59.9566992" lon="17.7172928">
        <ele>25.6123</ele>
        <time>2012-03-24T14:20:24Z</time>
      </trkpt>
      <trkpt lat="59.9566916" lon="17.7172794">
        <ele>24.651</ele>
        <time>2012-03-24T14:20:26Z</time>
      </trkpt>
      <trkpt lat="59.95665" lon="17.7172115">
        <ele>22.7283</ele>
        <time>2012-03-24T14:20:30Z</time>
      </trkpt>
      <trkpt lat="59.9566285" lon="17.717185">
        <ele>21.767</ele>
        <time>2012-03-24T14:20:32Z</time>
      </trkpt>
      <trkpt lat="59.9565872" lon="17.7171361">
        <ele>18.8831</ele>
        <time>2012-03-24T14:20:36Z</time>
      </trkpt>
      <trkpt lat="59.9565395" lon="17.717068">
        <ele>16.4797</ele>
        <time>2012-03-24T14:20:40Z</time>
      </trkpt>
      <trkpt lat="59.9564949" lon="17.7170136">
        <ele>15.0377</ele>
        <time>2012-03-24T14:20:44Z</time>
      </trkpt>
      <trkpt lat="59.9564771" lon="17.7169624">
        <ele>14.557</ele>
        <time>2012-03-24T14:20:47Z</time>
      </trkpt>
      <trkpt lat="59.9564235" lon="17.7168519">
        <ele>14.557</ele>
        <time>2012-03-24T14:20:53Z</time>
      </trkpt>
      <trkpt lat="59.9563658" lon="17.7167508">
        <ele>15.5184</ele>
        <time>2012-03-24T14:20:57Z</time>
      </trkpt>
      <trkpt lat="59.9563315" lon="17.7166317">
        <ele>16.9604</ele>
        <time>2012-03-24T14:21:01Z</time>
      </trkpt>
      <trkpt lat="59.9563067" lon="17.7165654">
        <ele>16.4797</ele>
        <time>2012-03-24T14:21:03Z</time>
      </trkpt>
      <trkpt lat="59.9562694" lon="17.7163925">
        <ele>15.999</ele>
        <time>2012-03-24T14:21:09Z</time>
      </trkpt>
      <trkpt lat="59.9562484" lon="17.7163304">
        <ele>15.999</ele>
        <time>2012-03-24T14:21:11Z</time>
      </trkpt>
      <trkpt lat="59.9562285" lon="17.7162853">
        <ele>15.0377</ele>
        <time>2012-03-24T14:21:13Z</time>
      </trkpt>
      <trkpt lat="59.9561843" lon="17.7161366">
        <ele>13.5958</ele>
        <time>2012-03-24T14:21:19Z</time>
      </trkpt>
      <trkpt lat="59.9561524" lon="17.7160584">
        <ele>13.1151</ele>
        <time>2012-03-24T14:21:23Z</time>
      </trkpt>
      <trkpt lat="59.9561189" lon="17.7159693">
        <ele>14.0764</ele>
        <time>2012-03-24T14:21:28Z</time>
      </trkpt>
      <trkpt lat="59.9560882" lon="17.7158984">
        <ele>14.557</ele>
        <time>2012-03-24T14:21:31Z</time>
      </trkpt>
      <trkpt lat="59.9560669" lon="17.7158453">
        <ele>14.557</ele>
        <time>2012-03-24T14:21:33Z</time>
      </trkpt>
      <trkpt lat="59.9560018" lon="17.715718">
        <ele>15.999</ele>
        <time>2012-03-24T14:21:38Z</time>
      </trkpt>
      <trkpt lat="59.9559681" lon="17.7156526">
        <ele>18.8831</ele>
        <time>2012-03-24T14:21:40Z</time>
      </trkpt>
      <trkpt lat="59.9559416" lon="17.7155826">
        <ele>21.767</ele>
        <time>2012-03-24T14:21:42Z</time>
      </trkpt>
      <trkpt lat="59.9558708" lon="17.715402">
        <ele>27.0543</ele>
        <time>2012-03-24T14:21:49Z</time>
      </trkpt>
      <trkpt lat="59.9558085" lon="17.7152956">
        <ele>26.0929</ele>
        <time>2012-03-24T14:21:54Z</time>
      </trkpt>
      <trkpt lat="59.9557747" lon="17.7152025">
        <ele>24.651</ele>
        <time>2012-03-24T14:21:58Z</time>
      </trkpt>
      <trkpt lat="59.9557523" lon="17.7151228">
        <ele>23.209</ele>
        <time>2012-03-24T14:22:01Z</time>
      </trkpt>
      <trkpt lat="59.9557039" lon="17.7149908">
        <ele>20.8057</ele>
        <time>2012-03-24T14:22:07Z</time>
      </trkpt>
      <trkpt lat="59.9556986" lon="17.7149615">
        <ele>19.8444</ele>
        <time>2012-03-24T14:22:08Z</time>
      </trkpt>
      <trkpt lat="59.9556732" lon="17.7147984">
        <ele>18.4023</ele>
        <time>2012-03-24T14:22:13Z</time>
      </trkpt>
      <trkpt lat="59.9556131" lon="17.7145593">
        <ele>21.2864</ele>
        <time>2012-03-24T14:22:18Z</time>
      </trkpt>
      <trkpt lat="59.9555776" lon="17.7143847">
        <ele>25.1317</ele>
        <time>2012-03-24T14:22:22Z</time>
      </trkpt>
      <trkpt lat="59.955557" lon="17.7142707">
        <ele>26.5736</ele>
        <time>2012-03-24T14:22:25Z</time>
      </trkpt>
      <trkpt lat="59.955535" lon="17.7141081">
        <ele>29.9381</ele>
        <time>2012-03-24T14:22:30Z</time>
      </trkpt>
      <trkpt lat="59.9555197" lon="17.7139112">
        <ele>32.8223</ele>
        <time>2012-03-24T14:22:36Z</time>
      </trkpt>
      <trkpt lat="59.9554916" lon="17.7137915">
        <ele>34.2642</ele>
        <time>2012-03-24T14:22:40Z</time>
      </trkpt>
      <trkpt lat="59.9554625" lon="17.7136682">
        <ele>34.2642</ele>
        <time>2012-03-24T14:22:44Z</time>
      </trkpt>
      <trkpt lat="59.9554634" lon="17.7135621">
        <ele>36.1868</ele>
        <time>2012-03-24T14:22:48Z</time>
      </trkpt>
      <trkpt lat="59.9554428" lon="17.7133024">
        <ele>39.5513</ele>
        <time>2012-03-24T14:22:57Z</time>
      </trkpt>
      <trkpt lat="59.9554117" lon="17.7131918">
        <ele>39.0707</ele>
        <time>2012-03-24T14:23:01Z</time>
      </trkpt>
      <trkpt lat="59.9553744" lon="17.7130383">
        <ele>39.5513</ele>
        <time>2012-03-24T14:23:07Z</time>
      </trkpt>
      <trkpt lat="59.955364" lon="17.7130088">
        <ele>39.5513</ele>
        <time>2012-03-24T14:23:08Z</time>
      </trkpt>
      <trkpt lat="59.955309" lon="17.7128229">
        <ele>40.5128</ele>
        <time>2012-03-24T14:23:15Z</time>
      </trkpt>
      <trkpt lat="59.9552568" lon="17.7126438">
        <ele>40.9934</ele>
        <time>2012-03-24T14:23:21Z</time>
      </trkpt>
      <trkpt lat="59.9552118" lon="17.7125202">
        <ele>40.5128</ele>
        <time>2012-03-24T14:23:26Z</time>
      </trkpt>
      <trkpt lat="59.9551763" lon="17.712396">
        <ele>40.0321</ele>
        <time>2012-03-24T14:23:30Z</time>
      </trkpt>
      <trkpt lat="59.9551698" lon="17.7123702">
        <ele>39.5513</ele>
        <time>2012-03-24T14:23:31Z</time>
      </trkpt>
      <trkpt lat="59.9551864" lon="17.7121976">
        <ele>37.6287</ele>
        <time>2012-03-24T14:23:37Z</time>
      </trkpt>
      <trkpt lat="59.9551991" lon="17.7119879">
        <ele>35.2255</ele>
        <time>2012-03-24T14:23:44Z</time>
      </trkpt>
      <trkpt lat="59.9552013" lon="17.7119588">
        <ele>35.2255</ele>
        <time>2012-03-24T14:23:45Z</time>
      </trkpt>
      <trkpt lat="59.9552075" lon="17.7118269">
        <ele>34.7449</ele>
        <time>2012-03-24T14:23:50Z</time>
      </trkpt>
      <trkpt lat="59.9551597" lon="17.7116639">
        <ele>35.2255</ele>
        <time>2012-03-24T14:23:57Z</time>
      </trkpt>
      <trkpt lat="59.9551176" lon="17.7115601">
        <ele>35.7061</ele>
        <time>2012-03-24T14:24:01Z</time>
      </trkpt>
      <trkpt lat="59.9550641" lon="17.7113966">
        <ele>34.7449</ele>
        <time>2012-03-24T14:24:07Z</time>
      </trkpt>
      <trkpt lat="59.9550193" lon="17.7112519">
        <ele>34.2642</ele>
        <time>2012-03-24T14:24:13Z</time>
      </trkpt>
      <trkpt lat="59.9549846" lon="17.7111614">
        <ele>33.7834</ele>
        <time>2012-03-24T14:24:17Z</time>
      </trkpt>
      <trkpt lat="59.954965" lon="17.7110395">
        <ele>28.9769</ele>
        <time>2012-03-24T14:24:23Z</time>
      </trkpt>
      <trkpt lat="59.9549263" lon="17.7109527">
        <ele>25.6123</ele>
        <time>2012-03-24T14:24:28Z</time>
      </trkpt>
      <trkpt lat="59.9548779" lon="17.7108518">
        <ele>26.0929</ele>
        <time>2012-03-24T14:24:32Z</time>
      </trkpt>
      <trkpt lat="59.9548539" lon="17.7107892">
        <ele>27.0543</ele>
        <time>2012-03-24T14:24:34Z</time>
      </trkpt>
      <trkpt lat="59.9548019" lon="17.7106492">
        <ele>29.4575</ele>
        <time>2012-03-24T14:24:39Z</time>
      </trkpt>
      <trkpt lat="59.9547154" lon="17.7105716">
        <ele>29.9381</ele>
        <time>2012-03-24T14:24:43Z</time>
      </trkpt>
      <trkpt lat="59.9546657" lon="17.7104852">
        <ele>30.4188</ele>
        <time>2012-03-24T14:24:47Z</time>
      </trkpt>
      <trkpt lat="59.954643" lon="17.7103841">
        <ele>31.3801</ele>
        <time>2012-03-24T14:24:50Z</time>
      </trkpt>
      <trkpt lat="59.9545704" lon="17.7102876">
        <ele>32.8223</ele>
        <time>2012-03-24T14:24:56Z</time>
      </trkpt>
      <trkpt lat="59.9545207" lon="17.7101858">
        <ele>32.8223</ele>
        <time>2012-03-24T14:25:01Z</time>
      </trkpt>
      <trkpt lat="59.9544799" lon="17.7101038">
        <ele>32.8223</ele>
        <time>2012-03-24T14:25:05Z</time>
      </trkpt>
      <trkpt lat="59.954442" lon="17.7100233">
        <ele>32.3416</ele>
        <time>2012-03-24T14:25:09Z</time>
      </trkpt>
      <trkpt lat="59.9543907" lon="17.7098967">
        <ele>39.0707</ele>
        <time>2012-03-24T14:25:14Z</time>
      </trkpt>
      <trkpt lat="59.9542979" lon="17.7097577">
        <ele>44.358</ele>
        <time>2012-03-24T14:25:21Z</time>
      </trkpt>
      <trkpt lat="59.9542435" lon="17.7096811">
        <ele>42.916</ele>
        <time>2012-03-24T14:25:25Z</time>
      </trkpt>
      <trkpt lat="59.9541933" lon="17.7096147">
        <ele>40.9934</ele>
        <time>2012-03-24T14:25:28Z</time>
      </trkpt>
      <trkpt lat="59.95414" lon="17.7094997">
        <ele>40.0321</ele>
        <time>2012-03-24T14:25:33Z</time>
      </trkpt>
      <trkpt lat="59.9541305" lon="17.7094771">
        <ele>39.5513</ele>
        <time>2012-03-24T14:25:34Z</time>
      </trkpt>
      <trkpt lat="59.9540985" lon="17.709365">
        <ele>36.6675</ele>
        <time>2012-03-24T14:25:39Z</time>
      </trkpt>
      <trkpt lat="59.954016" lon="17.7092966">
        <ele>34.2642</ele>
        <time>2012-03-24T14:25:45Z</time>
      </trkpt>
      <trkpt lat="59.9539326" lon="17.7092403">
        <ele>33.7834</ele>
        <time>2012-03-24T14:25:51Z</time>
      </trkpt>
      <trkpt lat="59.9539085" lon="17.709205">
        <ele>33.3029</ele>
        <time>2012-03-24T14:25:53Z</time>
      </trkpt>
      <trkpt lat="59.9538274" lon="17.7091319">
        <ele>33.7834</ele>
        <time>2012-03-24T14:25:59Z</time>
      </trkpt>
      <trkpt lat="59.9537788" lon="17.7090968">
        <ele>35.2255</ele>
        <time>2012-03-24T14:26:03Z</time>
      </trkpt>
      <trkpt lat="59.9537034" lon="17.7090175">
        <ele>36.1868</ele>
        <time>2012-03-24T14:26:09Z</time>
      </trkpt>
      <trkpt lat="59.9536426" lon="17.7089745">
        <ele>35.7061</ele>
        <time>2012-03-24T14:26:13Z</time>
      </trkpt>
      <trkpt lat="59.953572" lon="17.7089224">
        <ele>35.7061</ele>
        <time>2012-03-24T14:26:18Z</time>
      </trkpt>
      <trkpt lat="59.9535044" lon="17.7088725">
        <ele>36.6675</ele>
        <time>2012-03-24T14:26:23Z</time>
      </trkpt>
      <trkpt lat="59.953407" lon="17.7087922">
        <ele>36.6675</ele>
        <time>2012-03-24T14:26:30Z</time>
      </trkpt>
      <trkpt lat="59.9533517" lon="17.7087328">
        <ele>36.1868</ele>
        <time>2012-03-24T14:26:34Z</time>
      </trkpt>
      <trkpt lat="59.9532781" lon="17.7085963">
        <ele>36.1868</ele>
        <time>2012-03-24T14:26:41Z</time>
      </trkpt>
      <trkpt lat="59.9532355" lon="17.708499">
        <ele>36.1868</ele>
        <time>2012-03-24T14:26:46Z</time>
      </trkpt>
      <trkpt lat="59.9531765" lon="17.7084146">
        <ele>35.7061</ele>
        <time>2012-03-24T14:26:51Z</time>
      </trkpt>
      <trkpt lat="59.9531008" lon="17.7083106">
        <ele>36.1868</ele>
        <time>2012-03-24T14:26:57Z</time>
      </trkpt>
      <trkpt lat="59.9530107" lon="17.7082779">
        <ele>35.2255</ele>
        <time>2012-03-24T14:27:02Z</time>
      </trkpt>
      <trkpt lat="59.9529406" lon="17.708208">
        <ele>34.7449</ele>
        <time>2012-03-24T14:27:06Z</time>
      </trkpt>
      <trkpt lat="59.9528948" lon="17.7082385">
        <ele>34.2642</ele>
        <time>2012-03-24T14:27:08Z</time>
      </trkpt>
      <trkpt lat="59.9528656" lon="17.7082593">
        <ele>33.7834</ele>
        <time>2012-03-24T14:27:10Z</time>
      </trkpt>
      <trkpt lat="59.9527987" lon="17.7082726">
        <ele>34.2642</ele>
        <time>2012-03-24T14:27:13Z</time>
      </trkpt>
      <trkpt lat="59.9527396" lon="17.7081707">
        <ele>36.1868</ele>
        <time>2012-03-24T14:27:19Z</time>
      </trkpt>
      <trkpt lat="59.9526429" lon="17.7080831">
        <ele>39.5513</ele>
        <time>2012-03-24T14:27:26Z</time>
      </trkpt>
      <trkpt lat="59.9526252" lon="17.7080666">
        <ele>40.0321</ele>
        <time>2012-03-24T14:27:27Z</time>
      </trkpt>
      <trkpt lat="59.9525166" lon="17.7079619">
        <ele>40.9934</ele>
        <time>2012-03-24T14:27:34Z</time>
      </trkpt>
      <trkpt lat="59.9524886" lon="17.7079344">
        <ele>40.5128</ele>
        <time>2012-03-24T14:27:36Z</time>
      </trkpt>
      <trkpt lat="59.9524236" lon="17.7078952">
        <ele>40.5128</ele>
        <time>2012-03-24T14:27:41Z</time>
      </trkpt>
      <trkpt lat="59.9522892" lon="17.7078066">
        <ele>43.3966</ele>
        <time>2012-03-24T14:27:50Z</time>
      </trkpt>
      <trkpt lat="59.9522268" lon="17.7077344">
        <ele>44.358</ele>
        <time>2012-03-24T14:27:55Z</time>
      </trkpt>
      <trkpt lat="59.9521736" lon="17.7076797">
        <ele>44.8386</ele>
        <time>2012-03-24T14:27:59Z</time>
      </trkpt>
      <trkpt lat="59.9520919" lon="17.7075862">
        <ele>46.2806</ele>
        <time>2012-03-24T14:28:05Z</time>
      </trkpt>
      <trkpt lat="59.952017" lon="17.7075079">
        <ele>45.3192</ele>
        <time>2012-03-24T14:28:11Z</time>
      </trkpt>
      <trkpt lat="59.9519447" lon="17.7074139">
        <ele>45.7999</ele>
        <time>2012-03-24T14:28:17Z</time>
      </trkpt>
      <trkpt lat="59.9518974" lon="17.7073797">
        <ele>46.2806</ele>
        <time>2012-03-24T14:28:20Z</time>
      </trkpt>
      <trkpt lat="59.9518483" lon="17.7073217">
        <ele>47.2418</ele>
        <time>2012-03-24T14:28:24Z</time>
      </trkpt>
      <trkpt lat="59.9517136" lon="17.7072359">
        <ele>48.2034</ele>
        <time>2012-03-24T14:28:33Z</time>
      </trkpt>
      <trkpt lat="59.9515928" lon="17.7071938">
        <ele>48.2034</ele>
        <time>2012-03-24T14:28:41Z</time>
      </trkpt>
      <trkpt lat="59.9514646" lon="17.7070937">
        <ele>47.7225</ele>
        <time>2012-03-24T14:28:50Z</time>
      </trkpt>
      <trkpt lat="59.9513779" lon="17.7070334">
        <ele>47.2418</ele>
        <time>2012-03-24T14:28:56Z</time>
      </trkpt>
      <trkpt lat="59.9512831" lon="17.7069718">
        <ele>46.7612</ele>
        <time>2012-03-24T14:29:02Z</time>
      </trkpt>
      <trkpt lat="59.9511944" lon="17.7069081">
        <ele>46.2806</ele>
        <time>2012-03-24T14:29:08Z</time>
      </trkpt>
      <trkpt lat="59.9511203" lon="17.7068393">
        <ele>45.7999</ele>
        <time>2012-03-24T14:29:14Z</time>
      </trkpt>
      <trkpt lat="59.9510688" lon="17.706754">
        <ele>44.8386</ele>
        <time>2012-03-24T14:29:19Z</time>
      </trkpt>
      <trkpt lat="59.9510128" lon="17.7067166">
        <ele>43.8773</ele>
        <time>2012-03-24T14:29:23Z</time>
      </trkpt>
      <trkpt lat="59.9509766" lon="17.7066837">
        <ele>43.8773</ele>
        <time>2012-03-24T14:29:26Z</time>
      </trkpt>
      <trkpt lat="59.9508858" lon="17.7065861">
        <ele>44.8386</ele>
        <time>2012-03-24T14:29:33Z</time>
      </trkpt>
      <trkpt lat="59.9507903" lon="17.706483">
        <ele>46.2806</ele>
        <time>2012-03-24T14:29:40Z</time>
      </trkpt>
      <trkpt lat="59.950672" lon="17.7064053">
        <ele>46.7612</ele>
        <time>2012-03-24T14:29:48Z</time>
      </trkpt>
      <trkpt lat="59.9506604" lon="17.7063964">
        <ele>46.7612</ele>
        <time>2012-03-24T14:29:49Z</time>
      </trkpt>
      <trkpt lat="59.9506077" lon="17.7063382">
        <ele>45.3192</ele>
        <time>2012-03-24T14:29:53Z</time>
      </trkpt>
      <trkpt lat="59.9505324" lon="17.7062714">
        <ele>43.3966</ele>
        <time>2012-03-24T14:29:58Z</time>
      </trkpt>
      <trkpt lat="59.9505067" lon="17.7062383">
        <ele>42.4354</ele>
        <time>2012-03-24T14:30:00Z</time>
      </trkpt>
      <trkpt lat="59.9504998" lon="17.7060894">
        <ele>38.5901</ele>
        <time>2012-03-24T14:30:05Z</time>
      </trkpt>
      <trkpt lat="59.9505274" lon="17.7060124">
        <ele>38.1094</ele>
        <time>2012-03-24T14:30:08Z</time>
      </trkpt>
      <trkpt lat="59.9505674" lon="17.7058795">
        <ele>37.6287</ele>
        <time>2012-03-24T14:30:13Z</time>
      </trkpt>
      <trkpt lat="59.9506023" lon="17.7057441">
        <ele>36.1868</ele>
        <time>2012-03-24T14:30:19Z</time>
      </trkpt>
      <trkpt lat="59.9506479" lon="17.7056049">
        <ele>36.6675</ele>
        <time>2012-03-24T14:30:24Z</time>
      </trkpt>
      <trkpt lat="59.9507057" lon="17.7054485">
        <ele>36.6675</ele>
        <time>2012-03-24T14:30:29Z</time>
      </trkpt>
      <trkpt lat="59.9507611" lon="17.7052987">
        <ele>35.2255</ele>
        <time>2012-03-24T14:30:35Z</time>
      </trkpt>
      <trkpt lat="59.9507967" lon="17.7051708">
        <ele>34.7449</ele>
        <time>2012-03-24T14:30:40Z</time>
      </trkpt>
      <trkpt lat="59.9508299" lon="17.7050605">
        <ele>35.2255</ele>
        <time>2012-03-24T14:30:44Z</time>
      </trkpt>
      <trkpt lat="59.950859" lon="17.7049365">
        <ele>34.7449</ele>
        <time>2012-03-24T14:30:50Z</time>
      </trkpt>
      <trkpt lat="59.9508853" lon="17.7048678">
        <ele>34.2642</ele>
        <time>2012-03-24T14:30:53Z</time>
      </trkpt>
      <trkpt lat="59.9509722" lon="17.7046386">
        <ele>31.3801</ele>
        <time>2012-03-24T14:31:03Z</time>
      </trkpt>
      <trkpt lat="59.9510348" lon="17.7044871">
        <ele>28.0155</ele>
        <time>2012-03-24T14:31:11Z</time>
      </trkpt>
      <trkpt lat="59.9510992" lon="17.704389">
        <ele>27.0543</ele>
        <time>2012-03-24T14:31:17Z</time>
      </trkpt>
      <trkpt lat="59.9511468" lon="17.7043198">
        <ele>26.5736</ele>
        <time>2012-03-24T14:31:21Z</time>
      </trkpt>
      <trkpt lat="59.9512646" lon="17.7041342">
        <ele>27.0543</ele>
        <time>2012-03-24T14:31:30Z</time>
      </trkpt>
      <trkpt lat="59.9513277" lon="17.7040018">
        <ele>26.0929</ele>
        <time>2012-03-24T14:31:36Z</time>
      </trkpt>
      <trkpt lat="59.95137" lon="17.7039297">
        <ele>24.651</ele>
        <time>2012-03-24T14:31:40Z</time>
      </trkpt>
      <trkpt lat="59.9514085" lon="17.7038511">
        <ele>23.209</ele>
        <time>2012-03-24T14:31:45Z</time>
      </trkpt>
      <trkpt lat="59.9514725" lon="17.7037337">
        <ele>22.7283</ele>
        <time>2012-03-24T14:31:51Z</time>
      </trkpt>
      <trkpt lat="59.9514966" lon="17.7036826">
        <ele>23.209</ele>
        <time>2012-03-24T14:31:53Z</time>
      </trkpt>
      <trkpt lat="59.9515476" lon="17.7035567">
        <ele>22.7283</ele>
        <time>2012-03-24T14:31:58Z</time>
      </trkpt>
      <trkpt lat="59.9516379" lon="17.7033332">
        <ele>23.6896</ele>
        <time>2012-03-24T14:32:06Z</time>
      </trkpt>
      <trkpt lat="59.9517215" lon="17.7031574">
        <ele>25.1317</ele>
        <time>2012-03-24T14:32:13Z</time>
      </trkpt>
      <trkpt lat="59.9517453" lon="17.7030656">
        <ele>26.5736</ele>
        <time>2012-03-24T14:32:16Z</time>
      </trkpt>
      <trkpt lat="59.9518342" lon="17.702917">
        <ele>25.1317</ele>
        <time>2012-03-24T14:32:23Z</time>
      </trkpt>
      <trkpt lat="59.9518892" lon="17.7028889">
        <ele>24.1703</ele>
        <time>2012-03-24T14:32:27Z</time>
      </trkpt>
      <trkpt lat="59.9519777" lon="17.7027767">
        <ele>26.5736</ele>
        <time>2012-03-24T14:32:32Z</time>
      </trkpt>
      <trkpt lat="59.9520021" lon="17.702685">
        <ele>26.0929</ele>
        <time>2012-03-24T14:32:35Z</time>
      </trkpt>
      <trkpt lat="59.9520456" lon="17.7025481">
        <ele>27.5349</ele>
        <time>2012-03-24T14:32:40Z</time>
      </trkpt>
      <trkpt lat="59.9521129" lon="17.7023716">
        <ele>26.0929</ele>
        <time>2012-03-24T14:32:47Z</time>
      </trkpt>
      <trkpt lat="59.9521719" lon="17.7022269">
        <ele>23.209</ele>
        <time>2012-03-24T14:32:54Z</time>
      </trkpt>
      <trkpt lat="59.9522027" lon="17.7021415">
        <ele>21.767</ele>
        <time>2012-03-24T14:32:58Z</time>
      </trkpt>
      <trkpt lat="59.952243" lon="17.7020144">
        <ele>20.325</ele>
        <time>2012-03-24T14:33:03Z</time>
      </trkpt>
      <trkpt lat="59.952325" lon="17.7018479">
        <ele>21.767</ele>
        <time>2012-03-24T14:33:10Z</time>
      </trkpt>
      <trkpt lat="59.9523938" lon="17.7016235">
        <ele>26.0929</ele>
        <time>2012-03-24T14:33:18Z</time>
      </trkpt>
      <trkpt lat="59.952435" lon="17.7014712">
        <ele>28.0155</ele>
        <time>2012-03-24T14:33:23Z</time>
      </trkpt>
      <trkpt lat="59.952501" lon="17.7012925">
        <ele>29.9381</ele>
        <time>2012-03-24T14:33:30Z</time>
      </trkpt>
      <trkpt lat="59.9525387" lon="17.7011381">
        <ele>28.9769</ele>
        <time>2012-03-24T14:33:36Z</time>
      </trkpt>
      <trkpt lat="59.9525372" lon="17.7009232">
        <ele>28.0155</ele>
        <time>2012-03-24T14:33:44Z</time>
      </trkpt>
      <trkpt lat="59.9525222" lon="17.7007689">
        <ele>28.0155</ele>
        <time>2012-03-24T14:33:50Z</time>
      </trkpt>
      <trkpt lat="59.9524616" lon="17.7005454">
        <ele>29.9381</ele>
        <time>2012-03-24T14:33:58Z</time>
      </trkpt>
      <trkpt lat="59.9524071" lon="17.7003891">
        <ele>30.8995</ele>
        <time>2012-03-24T14:34:04Z</time>
      </trkpt>
      <trkpt lat="59.9523306" lon="17.7002612">
        <ele>30.4188</ele>
        <time>2012-03-24T14:34:10Z</time>
      </trkpt>
      <trkpt lat="59.9522423" lon="17.7001582">
        <ele>30.4188</ele>
        <time>2012-03-24T14:34:17Z</time>
      </trkpt>
      <trkpt lat="59.9521569" lon="17.7000162">
        <ele>31.3801</ele>
        <time>2012-03-24T14:34:24Z</time>
      </trkpt>
      <trkpt lat="59.9520497" lon="17.6998435">
        <ele>32.3416</ele>
        <time>2012-03-24T14:34:33Z</time>
      </trkpt>
      <trkpt lat="59.9519254" lon="17.699638">
        <ele>33.3029</ele>
        <time>2012-03-24T14:34:43Z</time>
      </trkpt>
      <trkpt lat="59.9518429" lon="17.6995143">
        <ele>32.3416</ele>
        <time>2012-03-24T14:34:50Z</time>
      </trkpt>
      <trkpt lat="59.9517369" lon="17.6993918">
        <ele>33.7834</ele>
        <time>2012-03-24T14:34:58Z</time>
      </trkpt>
      <trkpt lat="59.9516526" lon="17.6993271">
        <ele>34.2642</ele>
        <time>2012-03-24T14:35:05Z</time>
      </trkpt>
      <trkpt lat="59.9516374" lon="17.6993317">
        <ele>34.7449</ele>
        <time>2012-03-24T14:35:06Z</time>
      </trkpt>
      <trkpt lat="59.9515935" lon="17.6991878">
        <ele>34.2642</ele>
        <time>2012-03-24T14:35:12Z</time>
      </trkpt>
      <trkpt lat="59.951538" lon="17.6990733">
        <ele>33.7834</ele>
        <time>2012-03-24T14:35:18Z</time>
      </trkpt>
      <trkpt lat="59.9514375" lon="17.6989243">
        <ele>32.3416</ele>
        <time>2012-03-24T14:35:27Z</time>
      </trkpt>
      <trkpt lat="59.9513381" lon="17.6987651">
        <ele>35.2255</ele>
        <time>2012-03-24T14:35:35Z</time>
      </trkpt>
      <trkpt lat="59.9512598" lon="17.6986325">
        <ele>34.2642</ele>
        <time>2012-03-24T14:35:42Z</time>
      </trkpt>
      <trkpt lat="59.951181" lon="17.6985178">
        <ele>34.2642</ele>
        <time>2012-03-24T14:35:48Z</time>
      </trkpt>
      <trkpt lat="59.9511251" lon="17.6984222">
        <ele>33.7834</ele>
        <time>2012-03-24T14:35:53Z</time>
      </trkpt>
      <trkpt lat="59.9511051" lon="17.698385">
        <ele>33.3029</ele>
        <time>2012-03-24T14:35:55Z</time>
      </trkpt>
      <trkpt lat="59.9509843" lon="17.6982181">
        <ele>35.7061</ele>
        <time>2012-03-24T14:36:04Z</time>
      </trkpt>
      <trkpt lat="59.9508875" lon="17.6980978">
        <ele>36.6675</ele>
        <time>2012-03-24T14:36:12Z</time>
      </trkpt>
      <trkpt lat="59.9507905" lon="17.6979823">
        <ele>37.6287</ele>
        <time>2012-03-24T14:36:20Z</time>
      </trkpt>
      <trkpt lat="59.9506614" lon="17.6978747">
        <ele>39.0707</ele>
        <time>2012-03-24T14:36:29Z</time>
      </trkpt>
      <trkpt lat="59.950545" lon="17.6977949">
        <ele>38.1094</ele>
        <time>2012-03-24T14:36:37Z</time>
      </trkpt>
      <trkpt lat="59.9504676" lon="17.6977299">
        <ele>37.6287</ele>
        <time>2012-03-24T14:36:43Z</time>
      </trkpt>
      <trkpt lat="59.9504321" lon="17.6977006">
        <ele>37.6287</ele>
        <time>2012-03-24T14:36:46Z</time>
      </trkpt>
      <trkpt lat="59.9503262" lon="17.6975885">
        <ele>37.1481</ele>
        <time>2012-03-24T14:36:54Z</time>
      </trkpt>
      <trkpt lat="59.9503083" lon="17.6975826">
        <ele>37.6287</ele>
        <time>2012-03-24T14:36:55Z</time>
      </trkpt>
      <trkpt lat="59.9502469" lon="17.6975627">
        <ele>36.6675</ele>
        <time>2012-03-24T14:36:59Z</time>
      </trkpt>
      <trkpt lat="59.9502162" lon="17.6975462">
        <ele>36.6675</ele>
        <time>2012-03-24T14:37:01Z</time>
      </trkpt>
      <trkpt lat="59.9501839" lon="17.6974148">
        <ele>36.1868</ele>
        <time>2012-03-24T14:37:06Z</time>
      </trkpt>
      <trkpt lat="59.9502068" lon="17.6972494">
        <ele>34.7449</ele>
        <time>2012-03-24T14:37:12Z</time>
      </trkpt>
      <trkpt lat="59.9502358" lon="17.6969905">
        <ele>33.7834</ele>
        <time>2012-03-24T14:37:21Z</time>
      </trkpt>
      <trkpt lat="59.9502455" lon="17.6969424">
        <ele>33.7834</ele>
        <time>2012-03-24T14:37:23Z</time>
      </trkpt>
      <trkpt lat="59.9502466" lon="17.6968417">
        <ele>32.8223</ele>
        <time>2012-03-24T14:37:27Z</time>
      </trkpt>
      <trkpt lat="59.9502532" lon="17.6966935">
        <ele>31.8607</ele>
        <time>2012-03-24T14:37:33Z</time>
      </trkpt>
      <trkpt lat="59.9502418" lon="17.6965242">
        <ele>30.4188</ele>
        <time>2012-03-24T14:37:39Z</time>
      </trkpt>
      <trkpt lat="59.9502254" lon="17.6963086">
        <ele>28.9769</ele>
        <time>2012-03-24T14:37:46Z</time>
      </trkpt>
      <trkpt lat="59.9502223" lon="17.6961371">
        <ele>26.5736</ele>
        <time>2012-03-24T14:37:51Z</time>
      </trkpt>
      <trkpt lat="59.950196" lon="17.6959016">
        <ele>27.0543</ele>
        <time>2012-03-24T14:37:59Z</time>
      </trkpt>
      <trkpt lat="59.9501879" lon="17.6958231">
        <ele>26.5736</ele>
        <time>2012-03-24T14:38:02Z</time>
      </trkpt>
      <trkpt lat="59.9501597" lon="17.6955529">
        <ele>25.1317</ele>
        <time>2012-03-24T14:38:11Z</time>
      </trkpt>
      <trkpt lat="59.9501314" lon="17.6952808">
        <ele>28.9769</ele>
        <time>2012-03-24T14:38:19Z</time>
      </trkpt>
      <trkpt lat="59.9501161" lon="17.6950674">
        <ele>29.4575</ele>
        <time>2012-03-24T14:38:26Z</time>
      </trkpt>
      <trkpt lat="59.9501192" lon="17.6949544">
        <ele>30.4188</ele>
        <time>2012-03-24T14:38:30Z</time>
      </trkpt>
      <trkpt lat="59.9501186" lon="17.6948226">
        <ele>30.4188</ele>
        <time>2012-03-24T14:38:34Z</time>
      </trkpt>
      <trkpt lat="59.9501252" lon="17.6945133">
        <ele>31.3801</ele>
        <time>2012-03-24T14:38:44Z</time>
      </trkpt>
      <trkpt lat="59.9501477" lon="17.6942552">
        <ele>34.2642</ele>
        <time>2012-03-24T14:38:52Z</time>
      </trkpt>
      <trkpt lat="59.9501457" lon="17.6940611">
        <ele>32.3416</ele>
        <time>2012-03-24T14:38:59Z</time>
      </trkpt>
      <trkpt lat="59.9501514" lon="17.6938979">
        <ele>30.8995</ele>
        <time>2012-03-24T14:39:05Z</time>
      </trkpt>
      <trkpt lat="59.9501675" lon="17.6936889">
        <ele>30.4188</ele>
        <time>2012-03-24T14:39:12Z</time>
      </trkpt>
      <trkpt lat="59.9501796" lon="17.693591">
        <ele>30.8995</ele>
        <time>2012-03-24T14:39:15Z</time>
      </trkpt>
      <trkpt lat="59.9501973" lon="17.6933567">
        <ele>30.4188</ele>
        <time>2012-03-24T14:39:23Z</time>
      </trkpt>
      <trkpt lat="59.9502207" lon="17.6931727">
        <ele>30.8995</ele>
        <time>2012-03-24T14:39:29Z</time>
      </trkpt>
      <trkpt lat="59.9502452" lon="17.6929734">
        <ele>32.3416</ele>
        <time>2012-03-24T14:39:36Z</time>
      </trkpt>
      <trkpt lat="59.9502714" lon="17.6927778">
        <ele>32.8223</ele>
        <time>2012-03-24T14:39:43Z</time>
      </trkpt>
      <trkpt lat="59.9503055" lon="17.6926278">
        <ele>33.7834</ele>
        <time>2012-03-24T14:39:49Z</time>
      </trkpt>
      <trkpt lat="59.9503352" lon="17.692491">
        <ele>34.2642</ele>
        <time>2012-03-24T14:39:54Z</time>
      </trkpt>
      <trkpt lat="59.9503441" lon="17.6923835">
        <ele>34.7449</ele>
        <time>2012-03-24T14:39:58Z</time>
      </trkpt>
      <trkpt lat="59.950362" lon="17.6922171">
        <ele>34.2642</ele>
        <time>2012-03-24T14:40:04Z</time>
      </trkpt>
      <trkpt lat="59.9504409" lon="17.6921723">
        <ele>31.8607</ele>
        <time>2012-03-24T14:40:11Z</time>
      </trkpt>
      <trkpt lat="59.9504717" lon="17.6921004">
        <ele>30.8995</ele>
        <time>2012-03-24T14:40:15Z</time>
      </trkpt>
      <trkpt lat="59.9505024" lon="17.6919052">
        <ele>29.4575</ele>
        <time>2012-03-24T14:40:22Z</time>
      </trkpt>
      <trkpt lat="59.9505222" lon="17.6917658">
        <ele>28.9769</ele>
        <time>2012-03-24T14:40:27Z</time>
      </trkpt>
      <trkpt lat="59.9505471" lon="17.6915918">
        <ele>28.0155</ele>
        <time>2012-03-24T14:40:33Z</time>
      </trkpt>
      <trkpt lat="59.9505486" lon="17.6915647">
        <ele>28.4962</ele>
        <time>2012-03-24T14:40:34Z</time>
      </trkpt>
      <trkpt lat="59.9505674" lon="17.6913591">
        <ele>28.0155</ele>
        <time>2012-03-24T14:40:41Z</time>
      </trkpt>
      <trkpt lat="59.9505776" lon="17.6912867">
        <ele>28.0155</ele>
        <time>2012-03-24T14:40:44Z</time>
      </trkpt>
      <trkpt lat="59.9505983" lon="17.6912468">
        <ele>27.5349</ele>
        <time>2012-03-24T14:40:46Z</time>
      </trkpt>
      <trkpt lat="59.9506016" lon="17.6910395">
        <ele>29.4575</ele>
        <time>2012-03-24T14:40:52Z</time>
      </trkpt>
      <trkpt lat="59.9506071" lon="17.6908296">
        <ele>30.4188</ele>
        <time>2012-03-24T14:40:58Z</time>
      </trkpt>
      <trkpt lat="59.9506328" lon="17.6906634">
        <ele>29.9381</ele>
        <time>2012-03-24T14:41:03Z</time>
      </trkpt>
      <trkpt lat="59.9506416" lon="17.6905509">
        <ele>28.9769</ele>
        <time>2012-03-24T14:41:07Z</time>
      </trkpt>
      <trkpt lat="59.9506573" lon="17.6903997">
        <ele>27.5349</ele>
        <time>2012-03-24T14:41:12Z</time>
      </trkpt>
      <trkpt lat="59.9506704" lon="17.690265">
        <ele>25.1317</ele>
        <time>2012-03-24T14:41:17Z</time>
      </trkpt>
      <trkpt lat="59.9506802" lon="17.6900749">
        <ele>23.6896</ele>
        <time>2012-03-24T14:41:23Z</time>
      </trkpt>
      <trkpt lat="59.9507009" lon="17.6899216">
        <ele>23.6896</ele>
        <time>2012-03-24T14:41:28Z</time>
      </trkpt>
      <trkpt lat="59.9507226" lon="17.6897458">
        <ele>24.1703</ele>
        <time>2012-03-24T14:41:34Z</time>
      </trkpt>
      <trkpt lat="59.9507411" lon="17.6895486">
        <ele>23.6896</ele>
        <time>2012-03-24T14:41:41Z</time>
      </trkpt>
      <trkpt lat="59.9507688" lon="17.6893711">
        <ele>23.209</ele>
        <time>2012-03-24T14:41:48Z</time>
      </trkpt>
      <trkpt lat="59.9508366" lon="17.6891726">
        <ele>26.0929</ele>
        <time>2012-03-24T14:41:55Z</time>
      </trkpt>
      <trkpt lat="59.9508823" lon="17.6890053">
        <ele>26.5736</ele>
        <time>2012-03-24T14:42:02Z</time>
      </trkpt>
      <trkpt lat="59.9509475" lon="17.6889041">
        <ele>27.0543</ele>
        <time>2012-03-24T14:42:08Z</time>
      </trkpt>
      <trkpt lat="59.9510291" lon="17.6888561">
        <ele>32.8223</ele>
        <time>2012-03-24T14:42:14Z</time>
      </trkpt>
      <trkpt lat="59.9510985" lon="17.6888743">
        <ele>33.3029</ele>
        <time>2012-03-24T14:42:18Z</time>
      </trkpt>
      <trkpt lat="59.9511713" lon="17.6889262">
        <ele>35.7061</ele>
        <time>2012-03-24T14:42:23Z</time>
      </trkpt>
      <trkpt lat="59.9512514" lon="17.6889711">
        <ele>35.2255</ele>
        <time>2012-03-24T14:42:29Z</time>
      </trkpt>
      <trkpt lat="59.9513519" lon="17.6890679">
        <ele>34.2642</ele>
        <time>2012-03-24T14:42:37Z</time>
      </trkpt>
      <trkpt lat="59.951428" lon="17.6891655">
        <ele>35.7061</ele>
        <time>2012-03-24T14:42:43Z</time>
      </trkpt>
      <trkpt lat="59.9514547" lon="17.6891943">
        <ele>35.7061</ele>
        <time>2012-03-24T14:42:45Z</time>
      </trkpt>
      <trkpt lat="59.9514991" lon="17.6893372">
        <ele>33.3029</ele>
        <time>2012-03-24T14:42:52Z</time>
      </trkpt>
      <trkpt lat="59.9515169" lon="17.6893817">
        <ele>32.8223</ele>
        <time>2012-03-24T14:42:54Z</time>
      </trkpt>
      <trkpt lat="59.9515328" lon="17.6894232">
        <ele>31.8607</ele>
        <time>2012-03-24T14:42:56Z</time>
      </trkpt>
      <trkpt lat="59.9515746" lon="17.6895369">
        <ele>30.4188</ele>
        <time>2012-03-24T14:43:01Z</time>
      </trkpt>
      <trkpt lat="59.9515826" lon="17.6895917">
        <ele>29.9381</ele>
        <time>2012-03-24T14:43:03Z</time>
      </trkpt>
      <trkpt lat="59.9516179" lon="17.6897569">
        <ele>31.8607</ele>
        <time>2012-03-24T14:43:09Z</time>
      </trkpt>
      <trkpt lat="59.9516269" lon="17.6898175">
        <ele>32.8223</ele>
        <time>2012-03-24T14:43:11Z</time>
      </trkpt>
      <trkpt lat="59.951639" lon="17.6899012">
        <ele>34.2642</ele>
        <time>2012-03-24T14:43:14Z</time>
      </trkpt>
      <trkpt lat="59.9516845" lon="17.6900496">
        <ele>36.1868</ele>
        <time>2012-03-24T14:43:20Z</time>
      </trkpt>
      <trkpt lat="59.9516944" lon="17.6900714">
        <ele>36.1868</ele>
        <time>2012-03-24T14:43:21Z</time>
      </trkpt>
      <trkpt lat="59.9517504" lon="17.6901998">
        <ele>37.1481</ele>
        <time>2012-03-24T14:43:27Z</time>
      </trkpt>
      <trkpt lat="59.9517717" lon="17.6902439">
        <ele>36.6675</ele>
        <time>2012-03-24T14:43:29Z</time>
      </trkpt>
      <trkpt lat="59.9518424" lon="17.6903439">
        <ele>35.2255</ele>
        <time>2012-03-24T14:43:34Z</time>
      </trkpt>
      <trkpt lat="59.9518975" lon="17.6904325">
        <ele>33.7834</ele>
        <time>2012-03-24T14:43:38Z</time>
      </trkpt>
      <trkpt lat="59.9519268" lon="17.6904562">
        <ele>32.8223</ele>
        <time>2012-03-24T14:43:40Z</time>
      </trkpt>
      <trkpt lat="59.9519949" lon="17.6905303">
        <ele>29.9381</ele>
        <time>2012-03-24T14:43:46Z</time>
      </trkpt>
      <trkpt lat="59.9520366" lon="17.6905591">
        <ele>28.4962</ele>
        <time>2012-03-24T14:43:48Z</time>
      </trkpt>
      <trkpt lat="59.9521254" lon="17.6906251">
        <ele>24.1703</ele>
        <time>2012-03-24T14:43:55Z</time>
      </trkpt>
      <trkpt lat="59.9521699" lon="17.690638">
        <ele>22.2476</ele>
        <time>2012-03-24T14:43:58Z</time>
      </trkpt>
      <trkpt lat="59.9522493" lon="17.6907199">
        <ele>21.767</ele>
        <time>2012-03-24T14:44:04Z</time>
      </trkpt>
      <trkpt lat="59.9523305" lon="17.6908226">
        <ele>23.209</ele>
        <time>2012-03-24T14:44:10Z</time>
      </trkpt>
      <trkpt lat="59.9523953" lon="17.6908537">
        <ele>25.1317</ele>
        <time>2012-03-24T14:44:14Z</time>
      </trkpt>
      <trkpt lat="59.9525259" lon="17.6909036">
        <ele>27.0543</ele>
        <time>2012-03-24T14:44:22Z</time>
      </trkpt>
      <trkpt lat="59.9526132" lon="17.6909207">
        <ele>28.9769</ele>
        <time>2012-03-24T14:44:28Z</time>
      </trkpt>
      <trkpt lat="59.9527235" lon="17.6908974">
        <ele>32.3416</ele>
        <time>2012-03-24T14:44:33Z</time>
      </trkpt>
      <trkpt lat="59.9528517" lon="17.6908789">
        <ele>36.6675</ele>
        <time>2012-03-24T14:44:40Z</time>
      </trkpt>
      <trkpt lat="59.9529692" lon="17.6908611">
        <ele>40.0321</ele>
        <time>2012-03-24T14:44:48Z</time>
      </trkpt>
      <trkpt lat="59.9530686" lon="17.6908254">
        <ele>40.0321</ele>
        <time>2012-03-24T14:44:55Z</time>
      </trkpt>
      <trkpt lat="59.9531869" lon="17.6907865">
        <ele>40.0321</ele>
        <time>2012-03-24T14:45:03Z</time>
      </trkpt>
      <trkpt lat="59.9532956" lon="17.6907881">
        <ele>37.6287</ele>
        <time>2012-03-24T14:45:11Z</time>
      </trkpt>
      <trkpt lat="59.9534016" lon="17.6907779">
        <ele>36.6675</ele>
        <time>2012-03-24T14:45:19Z</time>
      </trkpt>
      <trkpt lat="59.9535107" lon="17.6907856">
        <ele>35.2255</ele>
        <time>2012-03-24T14:45:26Z</time>
      </trkpt>
      <trkpt lat="59.9536122" lon="17.6907936">
        <ele>33.7834</ele>
        <time>2012-03-24T14:45:32Z</time>
      </trkpt>
      <trkpt lat="59.9536913" lon="17.6907836">
        <ele>31.3801</ele>
        <time>2012-03-24T14:45:38Z</time>
      </trkpt>
      <trkpt lat="59.9538033" lon="17.6907993">
        <ele>32.8223</ele>
        <time>2012-03-24T14:45:45Z</time>
      </trkpt>
      <trkpt lat="59.9538156" lon="17.6907995">
        <ele>32.3416</ele>
        <time>2012-03-24T14:45:46Z</time>
      </trkpt>
      <trkpt lat="59.9538816" lon="17.6907827">
        <ele>31.8607</ele>
        <time>2012-03-24T14:45:52Z</time>
      </trkpt>
      <trkpt lat="59.9539705" lon="17.6907935">
        <ele>32.3416</ele>
        <time>2012-03-24T14:45:58Z</time>
      </trkpt>
      <trkpt lat="59.9540764" lon="17.6908121">
        <ele>31.8607</ele>
        <time>2012-03-24T14:46:05Z</time>
      </trkpt>
      <trkpt lat="59.9541693" lon="17.6908316">
        <ele>32.3416</ele>
        <time>2012-03-24T14:46:11Z</time>
      </trkpt>
      <trkpt lat="59.9542683" lon="17.6908534">
        <ele>33.7834</ele>
        <time>2012-03-24T14:46:18Z</time>
      </trkpt>
      <trkpt lat="59.9543952" lon="17.6908897">
        <ele>34.2642</ele>
        <time>2012-03-24T14:46:26Z</time>
      </trkpt>
      <trkpt lat="59.9544226" lon="17.6909064">
        <ele>33.7834</ele>
        <time>2012-03-24T14:46:28Z</time>
      </trkpt>
      <trkpt lat="59.9544705" lon="17.6909951">
        <ele>32.3416</ele>
        <time>2012-03-24T14:46:33Z</time>
      </trkpt>
      <trkpt lat="59.9545145" lon="17.6910824">
        <ele>32.3416</ele>
        <time>2012-03-24T14:46:37Z</time>
      </trkpt>
      <trkpt lat="59.954564" lon="17.6911975">
        <ele>31.8607</ele>
        <time>2012-03-24T14:46:43Z</time>
      </trkpt>
      <trkpt lat="59.9546177" lon="17.6913073">
        <ele>32.8223</ele>
        <time>2012-03-24T14:46:47Z</time>
      </trkpt>
      <trkpt lat="59.9546828" lon="17.6914019">
        <ele>32.3416</ele>
        <time>2012-03-24T14:46:52Z</time>
      </trkpt>
      <trkpt lat="59.954723" lon="17.6914539">
        <ele>32.3416</ele>
        <time>2012-03-24T14:46:55Z</time>
      </trkpt>
      <trkpt lat="59.9547331" lon="17.6915394">
        <ele>30.8995</ele>
        <time>2012-03-24T14:46:58Z</time>
      </trkpt>
      <trkpt lat="59.9547632" lon="17.6915461">
        <ele>39.0707</ele>
        <time>2012-03-24T15:05:33Z</time>
      </trkpt>
      <trkpt lat="59.9547634" lon="17.6915378">
        <ele>37.6287</ele>
        <time>2012-03-24T15:05:34Z</time>
      </trkpt>
      <trkpt lat="59.9547904" lon="17.6914684">
        <ele>36.1868</ele>
        <time>2012-03-24T15:05:39Z</time>
      </trkpt>
      <trkpt lat="59.9548546" lon="17.6914172">
        <ele>34.7449</ele>
        <time>2012-03-24T15:05:46Z</time>
      </trkpt>
      <trkpt lat="59.9548776" lon="17.6914118">
        <ele>33.7834</ele>
        <time>2012-03-24T15:05:48Z</time>
      </trkpt>
      <trkpt lat="59.9549217" lon="17.6914197">
        <ele>32.8223</ele>
        <time>2012-03-24T15:05:52Z</time>
      </trkpt>
      <trkpt lat="59.9549487" lon="17.691416">
        <ele>32.3416</ele>
        <time>2012-03-24T15:05:55Z</time>
      </trkpt>
      <trkpt lat="59.9549808" lon="17.6912949">
        <ele>32.8223</ele>
        <time>2012-03-24T15:06:02Z</time>
      </trkpt>
      <trkpt lat="59.95501" lon="17.6911062">
        <ele>32.8223</ele>
        <time>2012-03-24T15:06:10Z</time>
      </trkpt>
      <trkpt lat="59.9550569" lon="17.6909021">
        <ele>33.3029</ele>
        <time>2012-03-24T15:06:19Z</time>
      </trkpt>
      <trkpt lat="59.9551019" lon="17.6907482">
        <ele>33.3029</ele>
        <time>2012-03-24T15:06:26Z</time>
      </trkpt>
      <trkpt lat="59.9551644" lon="17.6905289">
        <ele>33.7834</ele>
        <time>2012-03-24T15:06:36Z</time>
      </trkpt>
      <trkpt lat="59.9552138" lon="17.6903314">
        <ele>32.3416</ele>
        <time>2012-03-24T15:06:45Z</time>
      </trkpt>
      <trkpt lat="59.9552811" lon="17.6901832">
        <ele>32.8223</ele>
        <time>2012-03-24T15:06:53Z</time>
      </trkpt>
      <trkpt lat="59.9553677" lon="17.6900185">
        <ele>33.3029</ele>
        <time>2012-03-24T15:07:02Z</time>
      </trkpt>
      <trkpt lat="59.9554552" lon="17.6898655">
        <ele>32.3416</ele>
        <time>2012-03-24T15:07:11Z</time>
      </trkpt>
      <trkpt lat="59.9555417" lon="17.6896744">
        <ele>30.8995</ele>
        <time>2012-03-24T15:07:21Z</time>
      </trkpt>
      <trkpt lat="59.9556749" lon="17.6895113">
        <ele>31.8607</ele>
        <time>2012-03-24T15:07:32Z</time>
      </trkpt>
      <trkpt lat="59.9558249" lon="17.6893435">
        <ele>33.7834</ele>
        <time>2012-03-24T15:07:44Z</time>
      </trkpt>
      <trkpt lat="59.9559578" lon="17.6892307">
        <ele>34.2642</ele>
        <time>2012-03-24T15:07:54Z</time>
      </trkpt>
      <trkpt lat="59.9560935" lon="17.6891643">
        <ele>33.7834</ele>
        <time>2012-03-24T15:08:04Z</time>
      </trkpt>
      <trkpt lat="59.9561593" lon="17.6893502">
        <ele>32.8223</ele>
        <time>2012-03-24T15:08:13Z</time>
      </trkpt>
      <trkpt lat="59.9562056" lon="17.6896585">
        <ele>31.3801</ele>
        <time>2012-03-24T15:08:25Z</time>
      </trkpt>
      <trkpt lat="59.9562327" lon="17.6898537">
        <ele>30.8995</ele>
        <time>2012-03-24T15:08:33Z</time>
      </trkpt>
      <trkpt lat="59.9562699" lon="17.6900787">
        <ele>31.8607</ele>
        <time>2012-03-24T15:08:42Z</time>
      </trkpt>
      <trkpt lat="59.9563317" lon="17.6903127">
        <ele>31.8607</ele>
        <time>2012-03-24T15:08:52Z</time>
      </trkpt>
      <trkpt lat="59.9563954" lon="17.6904764">
        <ele>31.8607</ele>
        <time>2012-03-24T15:09:00Z</time>
      </trkpt>
      <trkpt lat="59.9564605" lon="17.6906659">
        <ele>28.9769</ele>
        <time>2012-03-24T15:09:09Z</time>
      </trkpt>
      <trkpt lat="59.9565596" lon="17.6909106">
        <ele>28.0155</ele>
        <time>2012-03-24T15:09:20Z</time>
      </trkpt>
      <trkpt lat="59.9566175" lon="17.6910446">
        <ele>27.5349</ele>
        <time>2012-03-24T15:09:26Z</time>
      </trkpt>
      <trkpt lat="59.9566807" lon="17.6911886">
        <ele>28.0155</ele>
        <time>2012-03-24T15:09:32Z</time>
      </trkpt>
      <trkpt lat="59.9567379" lon="17.691382">
        <ele>26.5736</ele>
        <time>2012-03-24T15:09:40Z</time>
      </trkpt>
      <trkpt lat="59.956742" lon="17.6914331">
        <ele>26.0929</ele>
        <time>2012-03-24T15:09:42Z</time>
      </trkpt>
      <trkpt lat="59.9567641" lon="17.6915993">
        <ele>26.0929</ele>
        <time>2012-03-24T15:09:49Z</time>
      </trkpt>
      <trkpt lat="59.9567904" lon="17.6917505">
        <ele>26.5736</ele>
        <time>2012-03-24T15:09:54Z</time>
      </trkpt>
      <trkpt lat="59.9568433" lon="17.6918584">
        <ele>25.6123</ele>
        <time>2012-03-24T15:09:57Z</time>
      </trkpt>
      <trkpt lat="59.9568667" lon="17.6919801">
        <ele>23.6896</ele>
        <time>2012-03-24T15:10:02Z</time>
      </trkpt>
      <trkpt lat="59.9568895" lon="17.6920837">
        <ele>22.2476</ele>
        <time>2012-03-24T15:10:07Z</time>
      </trkpt>
      <trkpt lat="59.9569191" lon="17.6921916">
        <ele>21.2864</ele>
        <time>2012-03-24T15:10:12Z</time>
      </trkpt>
      <trkpt lat="59.9569288" lon="17.692237">
        <ele>20.325</ele>
        <time>2012-03-24T15:10:14Z</time>
      </trkpt>
      <trkpt lat="59.9569549" lon="17.6924655">
        <ele>15.999</ele>
        <time>2012-03-24T15:10:21Z</time>
      </trkpt>
      <trkpt lat="59.9569984" lon="17.6925801">
        <ele>15.999</ele>
        <time>2012-03-24T15:10:27Z</time>
      </trkpt>
      <trkpt lat="59.9570274" lon="17.6926318">
        <ele>17.4412</ele>
        <time>2012-03-24T15:10:29Z</time>
      </trkpt>
      <trkpt lat="59.9570686" lon="17.6927064">
        <ele>18.8831</ele>
        <time>2012-03-24T15:10:33Z</time>
      </trkpt>
      <trkpt lat="59.9571297" lon="17.692836">
        <ele>22.7283</ele>
        <time>2012-03-24T15:10:41Z</time>
      </trkpt>
      <trkpt lat="59.9571917" lon="17.6929112">
        <ele>23.209</ele>
        <time>2012-03-24T15:10:46Z</time>
      </trkpt>
      <trkpt lat="59.9572468" lon="17.6930085">
        <ele>24.1703</ele>
        <time>2012-03-24T15:10:51Z</time>
      </trkpt>
      <trkpt lat="59.9573069" lon="17.6931754">
        <ele>25.1317</ele>
        <time>2012-03-24T15:10:58Z</time>
      </trkpt>
      <trkpt lat="59.9573764" lon="17.6933447">
        <ele>26.0929</ele>
        <time>2012-03-24T15:11:06Z</time>
      </trkpt>
      <trkpt lat="59.95743" lon="17.6934726">
        <ele>25.6123</ele>
        <time>2012-03-24T15:11:12Z</time>
      </trkpt>
      <trkpt lat="59.9574594" lon="17.6935827">
        <ele>24.1703</ele>
        <time>2012-03-24T15:11:17Z</time>
      </trkpt>
      <trkpt lat="59.9574843" lon="17.6936766">
        <ele>24.651</ele>
        <time>2012-03-24T15:11:21Z</time>
      </trkpt>
      <trkpt lat="59.9575376" lon="17.6938534">
        <ele>25.1317</ele>
        <time>2012-03-24T15:11:29Z</time>
      </trkpt>
      <trkpt lat="59.9575909" lon="17.694036">
        <ele>24.1703</ele>
        <time>2012-03-24T15:11:36Z</time>
      </trkpt>
      <trkpt lat="59.9576506" lon="17.6941879">
        <ele>23.209</ele>
        <time>2012-03-24T15:11:43Z</time>
      </trkpt>
      <trkpt lat="59.9577318" lon="17.6943798">
        <ele>23.6896</ele>
        <time>2012-03-24T15:11:51Z</time>
      </trkpt>
      <trkpt lat="59.9577769" lon="17.6945336">
        <ele>24.1703</ele>
        <time>2012-03-24T15:11:58Z</time>
      </trkpt>
      <trkpt lat="59.9578246" lon="17.6947142">
        <ele>24.1703</ele>
        <time>2012-03-24T15:12:06Z</time>
      </trkpt>
      <trkpt lat="59.9578868" lon="17.6949504">
        <ele>25.1317</ele>
        <time>2012-03-24T15:12:16Z</time>
      </trkpt>
      <trkpt lat="59.9579495" lon="17.6950627">
        <ele>27.5349</ele>
        <time>2012-03-24T15:12:23Z</time>
      </trkpt>
      <trkpt lat="59.9580477" lon="17.6951963">
        <ele>29.4575</ele>
        <time>2012-03-24T15:12:31Z</time>
      </trkpt>
      <trkpt lat="59.9581302" lon="17.6954032">
        <ele>29.4575</ele>
        <time>2012-03-24T15:12:40Z</time>
      </trkpt>
      <trkpt lat="59.9582202" lon="17.6956483">
        <ele>30.4188</ele>
        <time>2012-03-24T15:12:50Z</time>
      </trkpt>
      <trkpt lat="59.9583074" lon="17.6959123">
        <ele>30.4188</ele>
        <time>2012-03-24T15:13:01Z</time>
      </trkpt>
      <trkpt lat="59.9583576" lon="17.6960849">
        <ele>29.9381</ele>
        <time>2012-03-24T15:13:08Z</time>
      </trkpt>
      <trkpt lat="59.9584315" lon="17.6963195">
        <ele>30.4188</ele>
        <time>2012-03-24T15:13:17Z</time>
      </trkpt>
      <trkpt lat="59.9584984" lon="17.6965366">
        <ele>29.9381</ele>
        <time>2012-03-24T15:13:26Z</time>
      </trkpt>
      <trkpt lat="59.9585848" lon="17.6967946">
        <ele>28.9769</ele>
        <time>2012-03-24T15:13:37Z</time>
      </trkpt>
      <trkpt lat="59.9586657" lon="17.6970289">
        <ele>26.0929</ele>
        <time>2012-03-24T15:13:48Z</time>
      </trkpt>
      <trkpt lat="59.9587456" lon="17.6969941">
        <ele>28.4962</ele>
        <time>2012-03-24T15:13:54Z</time>
      </trkpt>
      <trkpt lat="59.958776" lon="17.6969824">
        <ele>29.9381</ele>
        <time>2012-03-24T15:13:59Z</time>
      </trkpt>
      <trkpt lat="59.9588397" lon="17.6969771">
        <ele>28.9769</ele>
        <time>2012-03-24T15:14:04Z</time>
      </trkpt>
      <trkpt lat="59.9589264" lon="17.697124">
        <ele>28.9769</ele>
        <time>2012-03-24T15:14:12Z</time>
      </trkpt>
      <trkpt lat="59.9590409" lon="17.6974342">
        <ele>28.4962</ele>
        <time>2012-03-24T15:14:25Z</time>
      </trkpt>
      <trkpt lat="59.9590999" lon="17.697669">
        <ele>28.9769</ele>
        <time>2012-03-24T15:14:34Z</time>
      </trkpt>
      <trkpt lat="59.9590616" lon="17.6978772">
        <ele>31.3801</ele>
        <time>2012-03-24T15:14:42Z</time>
      </trkpt>
      <trkpt lat="59.9590559" lon="17.6981156">
        <ele>32.8223</ele>
        <time>2012-03-24T15:14:51Z</time>
      </trkpt>
      <trkpt lat="59.9590741" lon="17.6984217">
        <ele>34.2642</ele>
        <time>2012-03-24T15:15:02Z</time>
      </trkpt>
      <trkpt lat="59.9590672" lon="17.6986252">
        <ele>35.2255</ele>
        <time>2012-03-24T15:15:10Z</time>
      </trkpt>
      <trkpt lat="59.9590847" lon="17.6988952">
        <ele>37.1481</ele>
        <time>2012-03-24T15:15:19Z</time>
      </trkpt>
      <trkpt lat="59.9590894" lon="17.6991271">
        <ele>36.1868</ele>
        <time>2012-03-24T15:15:27Z</time>
      </trkpt>
      <trkpt lat="59.9590906" lon="17.6993285">
        <ele>35.7061</ele>
        <time>2012-03-24T15:15:34Z</time>
      </trkpt>
      <trkpt lat="59.9591134" lon="17.6995577">
        <ele>35.2255</ele>
        <time>2012-03-24T15:15:42Z</time>
      </trkpt>
      <trkpt lat="59.959137" lon="17.6998277">
        <ele>35.2255</ele>
        <time>2012-03-24T15:15:51Z</time>
      </trkpt>
      <trkpt lat="59.9590994" lon="17.6999861">
        <ele>33.7834</ele>
        <time>2012-03-24T15:15:57Z</time>
      </trkpt>
      <trkpt lat="59.959044" lon="17.7001856">
        <ele>33.7834</ele>
        <time>2012-03-24T15:16:05Z</time>
      </trkpt>
      <trkpt lat="59.9590212" lon="17.7002126">
        <ele>33.3029</ele>
        <time>2012-03-24T15:16:07Z</time>
      </trkpt>
      <trkpt lat="59.9589811" lon="17.7004949">
        <ele>33.3029</ele>
        <time>2012-03-24T15:16:18Z</time>
      </trkpt>
      <trkpt lat="59.9589441" lon="17.7007756">
        <ele>33.3029</ele>
        <time>2012-03-24T15:16:28Z</time>
      </trkpt>
      <trkpt lat="59.9588735" lon="17.7009226">
        <ele>33.7834</ele>
        <time>2012-03-24T15:16:35Z</time>
      </trkpt>
      <trkpt lat="59.9587326" lon="17.7010343">
        <ele>32.8223</ele>
        <time>2012-03-24T15:16:46Z</time>
      </trkpt>
      <trkpt lat="59.9586631" lon="17.7011138">
        <ele>32.8223</ele>
        <time>2012-03-24T15:16:52Z</time>
      </trkpt>
      <trkpt lat="59.9585897" lon="17.7012697">
        <ele>32.8223</ele>
        <time>2012-03-24T15:17:00Z</time>
      </trkpt>
      <trkpt lat="59.9585134" lon="17.7014308">
        <ele>32.8223</ele>
        <time>2012-03-24T15:17:08Z</time>
      </trkpt>
      <trkpt lat="59.958424" lon="17.7016158">
        <ele>32.8223</ele>
        <time>2012-03-24T15:17:17Z</time>
      </trkpt>
      <trkpt lat="59.9583284" lon="17.7018499">
        <ele>35.2255</ele>
        <time>2012-03-24T15:17:28Z</time>
      </trkpt>
      <trkpt lat="59.9582224" lon="17.7020579">
        <ele>35.7061</ele>
        <time>2012-03-24T15:17:38Z</time>
      </trkpt>
      <trkpt lat="59.9581065" lon="17.702319">
        <ele>36.1868</ele>
        <time>2012-03-24T15:17:50Z</time>
      </trkpt>
      <trkpt lat="59.9579908" lon="17.7025958">
        <ele>35.7061</ele>
        <time>2012-03-24T15:18:02Z</time>
      </trkpt>
      <trkpt lat="59.9579295" lon="17.7027336">
        <ele>33.7834</ele>
        <time>2012-03-24T15:18:09Z</time>
      </trkpt>
      <trkpt lat="59.9579243" lon="17.7028876">
        <ele>33.3029</ele>
        <time>2012-03-24T15:18:15Z</time>
      </trkpt>
      <trkpt lat="59.957966" lon="17.7030119">
        <ele>32.8223</ele>
        <time>2012-03-24T15:18:21Z</time>
      </trkpt>
      <trkpt lat="59.9580072" lon="17.70308">
        <ele>31.8607</ele>
        <time>2012-03-24T15:18:25Z</time>
      </trkpt>
      <trkpt lat="59.9580578" lon="17.7031444">
        <ele>30.8995</ele>
        <time>2012-03-24T15:18:31Z</time>
      </trkpt>
      <trkpt lat="59.9581069" lon="17.7031967">
        <ele>28.9769</ele>
        <time>2012-03-24T15:18:35Z</time>
      </trkpt>
      <trkpt lat="59.9581893" lon="17.7033278">
        <ele>25.1317</ele>
        <time>2012-03-24T15:18:43Z</time>
      </trkpt>
      <trkpt lat="59.9582794" lon="17.7034391">
        <ele>23.209</ele>
        <time>2012-03-24T15:18:50Z</time>
      </trkpt>
      <trkpt lat="59.9583608" lon="17.7035204">
        <ele>20.8057</ele>
        <time>2012-03-24T15:18:56Z</time>
      </trkpt>
      <trkpt lat="59.9584434" lon="17.7036136">
        <ele>19.8444</ele>
        <time>2012-03-24T15:19:02Z</time>
      </trkpt>
      <trkpt lat="59.958526" lon="17.7036872">
        <ele>18.4023</ele>
        <time>2012-03-24T15:19:08Z</time>
      </trkpt>
      <trkpt lat="59.9585691" lon="17.7037205">
        <ele>17.4412</ele>
        <time>2012-03-24T15:19:11Z</time>
      </trkpt>
      <trkpt lat="59.9586134" lon="17.7037953">
        <ele>16.9604</ele>
        <time>2012-03-24T15:19:16Z</time>
      </trkpt>
      <trkpt lat="59.9586239" lon="17.703808">
        <ele>16.9604</ele>
        <time>2012-03-24T15:19:17Z</time>
      </trkpt>
      <trkpt lat="59.9587217" lon="17.7039328">
        <ele>16.9604</ele>
        <time>2012-03-24T15:19:24Z</time>
      </trkpt>
      <trkpt lat="59.9587807" lon="17.703974">
        <ele>16.9604</ele>
        <time>2012-03-24T15:19:28Z</time>
      </trkpt>
      <trkpt lat="59.9588718" lon="17.7040126">
        <ele>16.9604</ele>
        <time>2012-03-24T15:19:34Z</time>
      </trkpt>
      <trkpt lat="59.9589426" lon="17.704081">
        <ele>16.4797</ele>
        <time>2012-03-24T15:19:40Z</time>
      </trkpt>
      <trkpt lat="59.959008" lon="17.7041458">
        <ele>18.4023</ele>
        <time>2012-03-24T15:19:45Z</time>
      </trkpt>
      <trkpt lat="59.9590733" lon="17.70424">
        <ele>18.4023</ele>
        <time>2012-03-24T15:19:51Z</time>
      </trkpt>
      <trkpt lat="59.9591616" lon="17.7042918">
        <ele>22.2476</ele>
        <time>2012-03-24T15:19:56Z</time>
      </trkpt>
      <trkpt lat="59.9592187" lon="17.7043866">
        <ele>23.6896</ele>
        <time>2012-03-24T15:20:02Z</time>
      </trkpt>
      <trkpt lat="59.959273" lon="17.7044974">
        <ele>22.2476</ele>
        <time>2012-03-24T15:20:08Z</time>
      </trkpt>
      <trkpt lat="59.9593406" lon="17.7046079">
        <ele>21.767</ele>
        <time>2012-03-24T15:20:14Z</time>
      </trkpt>
      <trkpt lat="59.9594159" lon="17.7046954">
        <ele>23.209</ele>
        <time>2012-03-24T15:20:19Z</time>
      </trkpt>
      <trkpt lat="59.9594755" lon="17.7047352">
        <ele>25.6123</ele>
        <time>2012-03-24T15:20:23Z</time>
      </trkpt>
      <trkpt lat="59.959561" lon="17.7049087">
        <ele>26.0929</ele>
        <time>2012-03-24T15:20:31Z</time>
      </trkpt>
      <trkpt lat="59.9596514" lon="17.7051175">
        <ele>28.4962</ele>
        <time>2012-03-24T15:20:40Z</time>
      </trkpt>
      <trkpt lat="59.9597127" lon="17.7053222">
        <ele>31.3801</ele>
        <time>2012-03-24T15:20:48Z</time>
      </trkpt>
      <trkpt lat="59.9597132" lon="17.7053459">
        <ele>31.3801</ele>
        <time>2012-03-24T15:20:49Z</time>
      </trkpt>
      <trkpt lat="59.9597003" lon="17.7054055">
        <ele>31.8607</ele>
        <time>2012-03-24T15:20:53Z</time>
      </trkpt>
      <trkpt lat="59.9596494" lon="17.705435">
        <ele>32.3416</ele>
        <time>2012-03-24T15:21:01Z</time>
      </trkpt>
      <trkpt lat="59.9596419" lon="17.7054386">
        <ele>32.3416</ele>
        <time>2012-03-24T15:21:03Z</time>
      </trkpt>
      <trkpt lat="59.9596568" lon="17.7055147">
        <ele>37.1481</ele>
        <time>2012-03-24T15:21:12Z</time>
      </trkpt>
      <trkpt lat="59.9596493" lon="17.705531">
        <ele>40.9934</ele>
        <time>2012-03-24T15:21:20Z</time>
      </trkpt>
      <trkpt lat="59.9596517" lon="17.7055531">
        <ele>39.5513</ele>
        <time>2012-03-24T15:21:28Z</time>
      </trkpt>
      <trkpt lat="59.9596464" lon="17.7055794">
        <ele>38.5901</ele>
        <time>2012-03-24T15:21:37Z</time>
      </trkpt>
      <trkpt lat="59.9596592" lon="17.7055806">
        <ele>36.1868</ele>
        <time>2012-03-24T15:21:57Z</time>
      </trkpt>
      <trkpt lat="59.959668" lon="17.7055713">
        <ele>35.7061</ele>
        <time>2012-03-24T15:22:08Z</time>
      </trkpt>
      <trkpt lat="59.9596543" lon="17.7055728">
        <ele>36.1868</ele>
        <time>2012-03-24T15:22:16Z</time>
      </trkpt>
      <trkpt lat="59.9596469" lon="17.7055548">
        <ele>36.1868</ele>
        <time>2012-03-24T15:22:26Z</time>
      </trkpt>
      <trkpt lat="59.9596289" lon="17.7055733">
        <ele>38.1094</ele>
        <time>2012-03-24T15:22:33Z</time>
      </trkpt>
      <trkpt lat="59.9596236" lon="17.7055542">
        <ele>39.5513</ele>
        <time>2012-03-24T15:22:46Z</time>
      </trkpt>
      <trkpt lat="59.9596128" lon="17.7055745">
        <ele>40.5128</ele>
        <time>2012-03-24T15:22:54Z</time>
      </trkpt>
      <trkpt lat="59.9595584" lon="17.7056749">
        <ele>38.5901</ele>
        <time>2012-03-24T15:23:00Z</time>
      </trkpt>
      <trkpt lat="59.9595142" lon="17.7058287">
        <ele>38.5901</ele>
        <time>2012-03-24T15:23:07Z</time>
      </trkpt>
      <trkpt lat="59.959477" lon="17.7059438">
        <ele>38.5901</ele>
        <time>2012-03-24T15:23:13Z</time>
      </trkpt>
      <trkpt lat="59.9594402" lon="17.7060945">
        <ele>37.6287</ele>
        <time>2012-03-24T15:23:20Z</time>
      </trkpt>
      <trkpt lat="59.9593759" lon="17.7062716">
        <ele>37.6287</ele>
        <time>2012-03-24T15:23:29Z</time>
      </trkpt>
      <trkpt lat="59.9593014" lon="17.7065002">
        <ele>37.1481</ele>
        <time>2012-03-24T15:23:40Z</time>
      </trkpt>
      <trkpt lat="59.9592218" lon="17.7067332">
        <ele>36.1868</ele>
        <time>2012-03-24T15:23:50Z</time>
      </trkpt>
      <trkpt lat="59.9591666" lon="17.7069217">
        <ele>36.6675</ele>
        <time>2012-03-24T15:23:58Z</time>
      </trkpt>
      <trkpt lat="59.9590952" lon="17.7072009">
        <ele>36.6675</ele>
        <time>2012-03-24T15:24:09Z</time>
      </trkpt>
      <trkpt lat="59.9590305" lon="17.7075159">
        <ele>36.6675</ele>
        <time>2012-03-24T15:24:21Z</time>
      </trkpt>
      <trkpt lat="59.9589873" lon="17.7077237">
        <ele>37.1481</ele>
        <time>2012-03-24T15:24:29Z</time>
      </trkpt>
      <trkpt lat="59.9589519" lon="17.7078596">
        <ele>36.6675</ele>
        <time>2012-03-24T15:24:36Z</time>
      </trkpt>
      <trkpt lat="59.9589518" lon="17.7080442">
        <ele>36.6675</ele>
        <time>2012-03-24T15:24:42Z</time>
      </trkpt>
      <trkpt lat="59.9589196" lon="17.7082857">
        <ele>37.6287</ele>
        <time>2012-03-24T15:24:50Z</time>
      </trkpt>
      <trkpt lat="59.9588792" lon="17.7086123">
        <ele>38.5901</ele>
        <time>2012-03-24T15:25:01Z</time>
      </trkpt>
      <trkpt lat="59.9588291" lon="17.7087695">
        <ele>37.6287</ele>
        <time>2012-03-24T15:25:08Z</time>
      </trkpt>
      <trkpt lat="59.9588511" lon="17.7087983">
        <ele>39.0707</ele>
        <time>2012-03-24T15:25:16Z</time>
      </trkpt>
      <trkpt lat="59.9588941" lon="17.7088518">
        <ele>39.5513</ele>
        <time>2012-03-24T15:25:22Z</time>
      </trkpt>
      <trkpt lat="59.9589534" lon="17.7088777">
        <ele>36.6675</ele>
        <time>2012-03-24T15:25:28Z</time>
      </trkpt>
      <trkpt lat="59.9589611" lon="17.7088842">
        <ele>36.1868</ele>
        <time>2012-03-24T15:25:29Z</time>
      </trkpt>
      <trkpt lat="59.9590419" lon="17.708941">
        <ele>33.7834</ele>
        <time>2012-03-24T15:25:37Z</time>
      </trkpt>
      <trkpt lat="59.9591235" lon="17.7089531">
        <ele>29.4575</ele>
        <time>2012-03-24T15:25:43Z</time>
      </trkpt>
      <trkpt lat="59.9592029" lon="17.7089057">
        <ele>28.0155</ele>
        <time>2012-03-24T15:25:50Z</time>
      </trkpt>
      <trkpt lat="59.9592854" lon="17.7088542">
        <ele>25.6123</ele>
        <time>2012-03-24T15:25:56Z</time>
      </trkpt>
      <trkpt lat="59.9593517" lon="17.7088345">
        <ele>25.1317</ele>
        <time>2012-03-24T15:26:00Z</time>
      </trkpt>
      <trkpt lat="59.9594298" lon="17.7088496">
        <ele>22.7283</ele>
        <time>2012-03-24T15:26:07Z</time>
      </trkpt>
      <trkpt lat="59.9594463" lon="17.7088596">
        <ele>22.2476</ele>
        <time>2012-03-24T15:26:08Z</time>
      </trkpt>
      <trkpt lat="59.9594775" lon="17.7088801">
        <ele>23.209</ele>
        <time>2012-03-24T15:26:10Z</time>
      </trkpt>
      <trkpt lat="59.9595737" lon="17.708934">
        <ele>23.6896</ele>
        <time>2012-03-24T15:26:17Z</time>
      </trkpt>
      <trkpt lat="59.9597004" lon="17.7089818">
        <ele>24.651</ele>
        <time>2012-03-24T15:26:24Z</time>
      </trkpt>
      <trkpt lat="59.9597656" lon="17.7090282">
        <ele>26.5736</ele>
        <time>2012-03-24T15:26:28Z</time>
      </trkpt>
      <trkpt lat="59.9598504" lon="17.7090626">
        <ele>25.6123</ele>
        <time>2012-03-24T15:26:33Z</time>
      </trkpt>
      <trkpt lat="59.9599427" lon="17.7090959">
        <ele>24.651</ele>
        <time>2012-03-24T15:26:38Z</time>
      </trkpt>
      <trkpt lat="59.9599546" lon="17.7091099">
        <ele>24.1703</ele>
        <time>2012-03-24T15:26:39Z</time>
      </trkpt>
      <trkpt lat="59.960051" lon="17.7091595">
        <ele>27.5349</ele>
        <time>2012-03-24T15:26:45Z</time>
      </trkpt>
      <trkpt lat="59.960124" lon="17.7092274">
        <ele>30.8995</ele>
        <time>2012-03-24T15:26:50Z</time>
      </trkpt>
      <trkpt lat="59.9601449" lon="17.7093758">
        <ele>30.4188</ele>
        <time>2012-03-24T15:26:55Z</time>
      </trkpt>
      <trkpt lat="59.9601453" lon="17.70959">
        <ele>32.3416</ele>
        <time>2012-03-24T15:27:02Z</time>
      </trkpt>
      <trkpt lat="59.9601551" lon="17.7097909">
        <ele>34.2642</ele>
        <time>2012-03-24T15:27:08Z</time>
      </trkpt>
      <trkpt lat="59.9601529" lon="17.7099571">
        <ele>37.1481</ele>
        <time>2012-03-24T15:27:13Z</time>
      </trkpt>
      <trkpt lat="59.9601407" lon="17.7101539">
        <ele>36.1868</ele>
        <time>2012-03-24T15:27:20Z</time>
      </trkpt>
      <trkpt lat="59.9601311" lon="17.7101856">
        <ele>35.7061</ele>
        <time>2012-03-24T15:27:21Z</time>
      </trkpt>
      <trkpt lat="59.9601193" lon="17.7103065">
        <ele>32.3416</ele>
        <time>2012-03-24T15:27:26Z</time>
      </trkpt>
      <trkpt lat="59.9600992" lon="17.7105597">
        <ele>31.3801</ele>
        <time>2012-03-24T15:27:35Z</time>
      </trkpt>
      <trkpt lat="59.9600815" lon="17.7107384">
        <ele>32.3416</ele>
        <time>2012-03-24T15:27:41Z</time>
      </trkpt>
      <trkpt lat="59.9600877" lon="17.7107981">
        <ele>33.3029</ele>
        <time>2012-03-24T15:27:43Z</time>
      </trkpt>
      <trkpt lat="59.9600692" lon="17.7110162">
        <ele>35.2255</ele>
        <time>2012-03-24T15:27:51Z</time>
      </trkpt>
      <trkpt lat="59.9600466" lon="17.7112284">
        <ele>36.6675</ele>
        <time>2012-03-24T15:27:59Z</time>
      </trkpt>
      <trkpt lat="59.9601011" lon="17.7113051">
        <ele>35.7061</ele>
        <time>2012-03-24T15:28:05Z</time>
      </trkpt>
      <trkpt lat="59.9601137" lon="17.7113187">
        <ele>35.7061</ele>
        <time>2012-03-24T15:28:06Z</time>
      </trkpt>
      <trkpt lat="59.9602224" lon="17.711373">
        <ele>34.7449</ele>
        <time>2012-03-24T15:28:13Z</time>
      </trkpt>
      <trkpt lat="59.9602446" lon="17.7113823">
        <ele>33.3029</ele>
        <time>2012-03-24T15:28:15Z</time>
      </trkpt>
      <trkpt lat="59.9603427" lon="17.7114301">
        <ele>29.4575</ele>
        <time>2012-03-24T15:28:22Z</time>
      </trkpt>
      <trkpt lat="59.9603933" lon="17.7114506">
        <ele>26.5736</ele>
        <time>2012-03-24T15:28:26Z</time>
      </trkpt>
      <trkpt lat="59.9604041" lon="17.7114609">
        <ele>26.0929</ele>
        <time>2012-03-24T15:28:27Z</time>
      </trkpt>
      <trkpt lat="59.9604353" lon="17.7115588">
        <ele>24.651</ele>
        <time>2012-03-24T15:28:31Z</time>
      </trkpt>
      <trkpt lat="59.9604571" lon="17.7116703">
        <ele>24.651</ele>
        <time>2012-03-24T15:28:35Z</time>
      </trkpt>
      <trkpt lat="59.9604701" lon="17.7117934">
        <ele>24.651</ele>
        <time>2012-03-24T15:28:39Z</time>
      </trkpt>
      <trkpt lat="59.9604678" lon="17.7120056">
        <ele>26.0929</ele>
        <time>2012-03-24T15:28:46Z</time>
      </trkpt>
      <trkpt lat="59.9604634" lon="17.7120759">
        <ele>27.0543</ele>
        <time>2012-03-24T15:28:48Z</time>
      </trkpt>
      <trkpt lat="59.9604676" lon="17.7122703">
        <ele>28.9769</ele>
        <time>2012-03-24T15:28:54Z</time>
      </trkpt>
      <trkpt lat="59.9604587" lon="17.7125297">
        <ele>30.8995</ele>
        <time>2012-03-24T15:29:03Z</time>
      </trkpt>
      <trkpt lat="59.9604641" lon="17.7127282">
        <ele>32.8223</ele>
        <time>2012-03-24T15:29:10Z</time>
      </trkpt>
      <trkpt lat="59.9604725" lon="17.7129135">
        <ele>35.2255</ele>
        <time>2012-03-24T15:29:17Z</time>
      </trkpt>
      <trkpt lat="59.9604975" lon="17.7131063">
        <ele>36.1868</ele>
        <time>2012-03-24T15:29:24Z</time>
      </trkpt>
      <trkpt lat="59.9605327" lon="17.7132824">
        <ele>34.2642</ele>
        <time>2012-03-24T15:29:31Z</time>
      </trkpt>
      <trkpt lat="59.9605923" lon="17.7134134">
        <ele>36.1868</ele>
        <time>2012-03-24T15:29:36Z</time>
      </trkpt>
      <trkpt lat="59.9606399" lon="17.713594">
        <ele>37.6287</ele>
        <time>2012-03-24T15:29:44Z</time>
      </trkpt>
      <trkpt lat="59.960596" lon="17.7137791">
        <ele>39.5513</ele>
        <time>2012-03-24T15:29:51Z</time>
      </trkpt>
      <trkpt lat="59.960525" lon="17.7139635">
        <ele>41.474</ele>
        <time>2012-03-24T15:29:59Z</time>
      </trkpt>
      <trkpt lat="59.96045" lon="17.7141143">
        <ele>42.916</ele>
        <time>2012-03-24T15:30:06Z</time>
      </trkpt>
      <trkpt lat="59.9603934" lon="17.7142149">
        <ele>42.916</ele>
        <time>2012-03-24T15:30:11Z</time>
      </trkpt>
      <trkpt lat="59.9603156" lon="17.7143282">
        <ele>43.3966</ele>
        <time>2012-03-24T15:30:17Z</time>
      </trkpt>
      <trkpt lat="59.9602679" lon="17.7143962">
        <ele>43.8773</ele>
        <time>2012-03-24T15:30:21Z</time>
      </trkpt>
      <trkpt lat="59.9602151" lon="17.7144725">
        <ele>44.358</ele>
        <time>2012-03-24T15:30:26Z</time>
      </trkpt>
      <trkpt lat="59.9601327" lon="17.71461">
        <ele>45.3192</ele>
        <time>2012-03-24T15:30:33Z</time>
      </trkpt>
      <trkpt lat="59.9600632" lon="17.7147235">
        <ele>45.7999</ele>
        <time>2012-03-24T15:30:39Z</time>
      </trkpt>
      <trkpt lat="59.9599904" lon="17.7148689">
        <ele>46.2806</ele>
        <time>2012-03-24T15:30:46Z</time>
      </trkpt>
      <trkpt lat="59.9599282" lon="17.7149743">
        <ele>46.2806</ele>
        <time>2012-03-24T15:30:52Z</time>
      </trkpt>
      <trkpt lat="59.9598755" lon="17.7150755">
        <ele>46.7612</ele>
        <time>2012-03-24T15:30:59Z</time>
      </trkpt>
      <trkpt lat="59.9598335" lon="17.7151596">
        <ele>45.7999</ele>
        <time>2012-03-24T15:31:04Z</time>
      </trkpt>
      <trkpt lat="59.9597931" lon="17.7152146">
        <ele>44.8386</ele>
        <time>2012-03-24T15:31:08Z</time>
      </trkpt>
      <trkpt lat="59.9597661" lon="17.7152451">
        <ele>44.358</ele>
        <time>2012-03-24T15:31:10Z</time>
      </trkpt>
      <trkpt lat="59.9596983" lon="17.7153967">
        <ele>43.8773</ele>
        <time>2012-03-24T15:31:18Z</time>
      </trkpt>
      <trkpt lat="59.9597004" lon="17.7155365">
        <ele>46.2806</ele>
        <time>2012-03-24T15:31:23Z</time>
      </trkpt>
      <trkpt lat="59.9597369" lon="17.7156282">
        <ele>45.3192</ele>
        <time>2012-03-24T15:31:28Z</time>
      </trkpt>
      <trkpt lat="59.9598131" lon="17.715848">
        <ele>41.9547</ele>
        <time>2012-03-24T15:31:36Z</time>
      </trkpt>
      <trkpt lat="59.9598629" lon="17.7159872">
        <ele>36.6675</ele>
        <time>2012-03-24T15:31:43Z</time>
      </trkpt>
      <trkpt lat="59.9599112" lon="17.7161089">
        <ele>34.7449</ele>
        <time>2012-03-24T15:31:50Z</time>
      </trkpt>
      <trkpt lat="59.9599717" lon="17.716224">
        <ele>32.8223</ele>
        <time>2012-03-24T15:31:57Z</time>
      </trkpt>
      <trkpt lat="59.9600389" lon="17.7163443">
        <ele>31.8607</ele>
        <time>2012-03-24T15:32:04Z</time>
      </trkpt>
      <trkpt lat="59.9600518" lon="17.7163883">
        <ele>31.8607</ele>
        <time>2012-03-24T15:32:06Z</time>
      </trkpt>
      <trkpt lat="59.9601267" lon="17.7165614">
        <ele>32.3416</ele>
        <time>2012-03-24T15:32:14Z</time>
      </trkpt>
      <trkpt lat="59.9601943" lon="17.7166827">
        <ele>32.8223</ele>
        <time>2012-03-24T15:32:20Z</time>
      </trkpt>
      <trkpt lat="59.9602535" lon="17.7168153">
        <ele>33.7834</ele>
        <time>2012-03-24T15:32:26Z</time>
      </trkpt>
      <trkpt lat="59.9603101" lon="17.7169901">
        <ele>34.2642</ele>
        <time>2012-03-24T15:32:33Z</time>
      </trkpt>
      <trkpt lat="59.9603554" lon="17.7170788">
        <ele>36.1868</ele>
        <time>2012-03-24T15:32:37Z</time>
      </trkpt>
      <trkpt lat="59.9603649" lon="17.7171622">
        <ele>35.7061</ele>
        <time>2012-03-24T15:32:40Z</time>
      </trkpt>
      <trkpt lat="59.9603747" lon="17.7173218">
        <ele>39.0707</ele>
        <time>2012-03-24T15:32:46Z</time>
      </trkpt>
      <trkpt lat="59.9603768" lon="17.7173539">
        <ele>39.5513</ele>
        <time>2012-03-24T15:32:47Z</time>
      </trkpt>
      <trkpt lat="59.9603892" lon="17.7175771">
        <ele>41.474</ele>
        <time>2012-03-24T15:32:55Z</time>
      </trkpt>
      <trkpt lat="59.9603819" lon="17.7178227">
        <ele>45.7999</ele>
        <time>2012-03-24T15:33:03Z</time>
      </trkpt>
      <trkpt lat="59.9603761" lon="17.7178522">
        <ele>45.7999</ele>
        <time>2012-03-24T15:33:04Z</time>
      </trkpt>
      <trkpt lat="59.9604113" lon="17.7180185">
        <ele>46.2806</ele>
        <time>2012-03-24T15:33:11Z</time>
      </trkpt>
      <trkpt lat="59.9604412" lon="17.7180511">
        <ele>46.7612</ele>
        <time>2012-03-24T15:33:14Z</time>
      </trkpt>
      <trkpt lat="59.9605425" lon="17.7181214">
        <ele>45.7999</ele>
        <time>2012-03-24T15:33:21Z</time>
      </trkpt>
      <trkpt lat="59.9606019" lon="17.7181703">
        <ele>45.3192</ele>
        <time>2012-03-24T15:33:24Z</time>
      </trkpt>
      <trkpt lat="59.9606841" lon="17.7180668">
        <ele>43.8773</ele>
        <time>2012-03-24T15:33:31Z</time>
      </trkpt>
      <trkpt lat="59.9607249" lon="17.7179657">
        <ele>42.916</ele>
        <time>2012-03-24T15:33:36Z</time>
      </trkpt>
      <trkpt lat="59.9607989" lon="17.7179805">
        <ele>41.9547</ele>
        <time>2012-03-24T15:33:42Z</time>
      </trkpt>
      <trkpt lat="59.9608431" lon="17.7180672">
        <ele>40.5128</ele>
        <time>2012-03-24T15:33:47Z</time>
      </trkpt>
      <trkpt lat="59.960887" lon="17.7180751">
        <ele>40.5128</ele>
        <time>2012-03-24T15:33:51Z</time>
      </trkpt>
      <trkpt lat="59.9609894" lon="17.7180045">
        <ele>43.8773</ele>
        <time>2012-03-24T15:33:57Z</time>
      </trkpt>
      <trkpt lat="59.9610533" lon="17.7180134">
        <ele>46.2806</ele>
        <time>2012-03-24T15:34:02Z</time>
      </trkpt>
      <trkpt lat="59.9610938" lon="17.7180688">
        <ele>47.7225</ele>
        <time>2012-03-24T15:34:06Z</time>
      </trkpt>
      <trkpt lat="59.9611103" lon="17.7180278">
        <ele>49.6453</ele>
        <time>2012-03-24T15:34:12Z</time>
      </trkpt>
      <trkpt lat="59.9611311" lon="17.7179974">
        <ele>50.126</ele>
        <time>2012-03-24T15:34:17Z</time>
      </trkpt>
      <trkpt lat="59.9611596" lon="17.7179941">
        <ele>51.5679</ele>
        <time>2012-03-24T15:34:21Z</time>
      </trkpt>
      <trkpt lat="59.9612143" lon="17.7179413">
        <ele>53.4905</ele>
        <time>2012-03-24T15:34:29Z</time>
      </trkpt>
      <trkpt lat="59.9612294" lon="17.7179434">
        <ele>58.2971</ele>
        <time>2012-03-24T15:34:37Z</time>
      </trkpt>
      <trkpt lat="59.9611792" lon="17.7180071">
        <ele>53.4905</ele>
        <time>2012-03-24T15:34:43Z</time>
      </trkpt>
      <trkpt lat="59.9611759" lon="17.7180719">
        <ele>53.9712</ele>
        <time>2012-03-24T15:34:47Z</time>
      </trkpt>
      <trkpt lat="59.961137" lon="17.7181309">
        <ele>50.6066</ele>
        <time>2012-03-24T15:34:54Z</time>
      </trkpt>
      <trkpt lat="59.9611256" lon="17.7181331">
        <ele>50.126</ele>
        <time>2012-03-24T15:35:01Z</time>
      </trkpt>
    </trkseg>
  </trk>
</gpx>